AFR672 LFPG-FMEE
Flight info
| Callsign | AFR672 |
|---|---|
| Flight time | 10h 43m |
| Altitude | 31000 |
| Route | LANVI DCT DEVDI DCT RIPUS DCT RESIA DCT LAPAB DCT LABIN/N0487F330 DCT ELGUS DCT AIOSA DCT NOSTO DCT SALUN N705 BOPIX N710 TAKRI P751 LXR M999 JDW/N0495F350 G650 RASKA/N0495F340 G650 ULONI UG650 KONET/N0494F350 DCT XADOX DCT DWA UN304 APKAK/N0490F360 UN304 DENLI/N0487F370 UN304 UVENA UVENA2R |
| Aircraft | B77W/H-SDE1E2E3FGHIJ2J3J4J5M1RWXY/LB1D1 |
Departure
| Time | 2026-04-25 14:39 |
|---|---|
| Airport | Charles de Gaulle International Airport (LFPG) |
Arrival
| Time | 2026-04-26 01:22 |
|---|---|
| Airport | Roland Garros Airport (FMEE) |
| Time | Latitude | Longitude | Altitude | Speed | Heading |
|---|---|---|---|---|---|
| 2026-04-25 13:53 | 49.00145 | 2.57624 | 359 ft | 0 kts | 357° |
| 2026-04-25 14:28 | 49.00131 | 2.57625 | 365 ft | 4 kts | 357° |
| 2026-04-25 14:28 | 49.00104 | 2.57627 | 359 ft | 4 kts | 359° |
| 2026-04-25 14:28 | 49.00078 | 2.57625 | 359 ft | 4 kts | 348° |
| 2026-04-25 14:29 | 49.00060 | 2.57642 | 368 ft | 4 kts | 300° |
| 2026-04-25 14:29 | 49.00057 | 2.57677 | 367 ft | 4 kts | 257° |
| 2026-04-25 14:29 | 49.00060 | 2.57701 | 363 ft | 1 kts | 265° |
| 2026-04-25 14:29 | 49.00060 | 2.57705 | 368 ft | 0 kts | 265° |
| 2026-04-25 14:33 | 49.00060 | 2.57694 | 367 ft | 3 kts | 265° |
| 2026-04-25 14:33 | 49.00057 | 2.57647 | 362 ft | 6 kts | 265° |
| 2026-04-25 14:33 | 49.00052 | 2.57563 | 361 ft | 10 kts | 264° |
| 2026-04-25 14:33 | 49.00046 | 2.57442 | 366 ft | 13 kts | 266° |
| 2026-04-25 14:34 | 49.00023 | 2.57308 | 366 ft | 13 kts | 220° |
| 2026-04-25 14:34 | 48.99958 | 2.57213 | 368 ft | 14 kts | 253° |
| 2026-04-25 14:34 | 48.99944 | 2.57070 | 367 ft | 14 kts | 264° |
| 2026-04-25 14:34 | 48.99935 | 2.56927 | 359 ft | 14 kts | 265° |
| 2026-04-25 14:35 | 48.99929 | 2.56783 | 365 ft | 14 kts | 265° |
| 2026-04-25 14:35 | 48.99921 | 2.56639 | 360 ft | 14 kts | 265° |
| 2026-04-25 14:35 | 48.99913 | 2.56480 | 364 ft | 16 kts | 265° |
| 2026-04-25 14:35 | 48.99905 | 2.56313 | 359 ft | 16 kts | 266° |
| 2026-04-25 14:36 | 48.99896 | 2.56148 | 359 ft | 16 kts | 265° |
| 2026-04-25 14:36 | 48.99890 | 2.55980 | 359 ft | 16 kts | 272° |
| 2026-04-25 14:36 | 48.99895 | 2.55833 | 363 ft | 13 kts | 247° |
| 2026-04-25 14:36 | 48.99810 | 2.55802 | 367 ft | 13 kts | 177° |
| 2026-04-25 14:37 | 48.99717 | 2.55810 | 360 ft | 13 kts | 175° |
| 2026-04-25 14:37 | 48.99632 | 2.55820 | 361 ft | 10 kts | 175° |
| 2026-04-25 14:37 | 48.99607 | 2.55845 | 367 ft | 2 kts | 105° |
| 2026-04-25 14:37 | 48.99608 | 2.55970 | 358 ft | 24 kts | 85° |
| 2026-04-25 14:38 | 48.99638 | 2.56551 | 363 ft | 89 kts | 85° |
| 2026-04-25 14:38 | 48.99707 | 2.57830 | 360 ft | 151 kts | 85° |
| 2026-04-25 14:38 | 48.99808 | 2.59658 | 363 ft | 197 kts | 85° |
| 2026-04-25 14:38 | 48.99902 | 2.61787 | 768 ft | 203 kts | 84° |
| 2026-04-25 14:39 | 49.00030 | 2.63981 | 1305 ft | 209 kts | 83° |
| 2026-04-25 14:39 | 49.00165 | 2.66194 | 1959 ft | 211 kts | 82° |
| 2026-04-25 14:39 | 49.00306 | 2.68434 | 2419 ft | 219 kts | 85° |
| 2026-04-25 14:39 | 49.00394 | 2.70867 | 2527 ft | 240 kts | 85° |
| 2026-04-25 14:40 | 49.00527 | 2.73467 | 2860 ft | 252 kts | 83° |
| 2026-04-25 14:40 | 49.00669 | 2.76165 | 3378 ft | 260 kts | 84° |
| 2026-04-25 14:40 | 49.00729 | 2.78936 | 3900 ft | 264 kts | 95° |
| 2026-04-25 14:40 | 49.00452 | 2.81726 | 4493 ft | 268 kts | 99° |
| 2026-04-25 14:41 | 49.00099 | 2.84518 | 5136 ft | 270 kts | 99° |
| 2026-04-25 14:41 | 48.99764 | 2.87347 | 5715 ft | 272 kts | 98° |
| 2026-04-25 14:41 | 48.99448 | 2.90196 | 6307 ft | 275 kts | 98° |
| 2026-04-25 14:41 | 48.99137 | 2.93086 | 6870 ft | 278 kts | 98° |
| 2026-04-25 14:42 | 48.98832 | 2.95997 | 7406 ft | 280 kts | 96° |
| 2026-04-25 14:42 | 48.98656 | 2.97942 | 7766 ft | 282 kts | 96° |
| 2026-04-25 14:42 | 48.98321 | 3.01940 | 8496 ft | 286 kts | 96° |
| 2026-04-25 14:42 | 48.98076 | 3.04957 | 9061 ft | 288 kts | 96° |
| 2026-04-25 14:43 | 48.97828 | 3.07957 | 9598 ft | 291 kts | 96° |
| 2026-04-25 14:43 | 48.97573 | 3.11041 | 10098 ft | 295 kts | 96° |
| 2026-04-25 14:43 | 48.97313 | 3.14175 | 10474 ft | 305 kts | 96° |
| 2026-04-25 14:43 | 48.97036 | 3.17484 | 10594 ft | 324 kts | 96° |
| 2026-04-25 14:44 | 48.96742 | 3.20980 | 10750 ft | 342 kts | 96° |
| 2026-04-25 14:44 | 48.96429 | 3.24677 | 10901 ft | 362 kts | 97° |
| 2026-04-25 14:44 | 48.96096 | 3.28561 | 11185 ft | 376 kts | 97° |
| 2026-04-25 14:44 | 48.95751 | 3.32567 | 11675 ft | 385 kts | 97° |
| 2026-04-25 14:45 | 48.95400 | 3.36635 | 12331 ft | 390 kts | 97° |
| 2026-04-25 14:45 | 48.95044 | 3.40755 | 13103 ft | 394 kts | 97° |
| 2026-04-25 14:45 | 48.94684 | 3.44902 | 13840 ft | 398 kts | 97° |
| 2026-04-25 14:45 | 48.94317 | 3.49109 | 14467 ft | 404 kts | 97° |
| 2026-04-25 14:46 | 48.93948 | 3.53320 | 15086 ft | 408 kts | 97° |
| 2026-04-25 14:46 | 48.93604 | 3.57629 | 15719 ft | 413 kts | 95° |
| 2026-04-25 14:46 | 48.93350 | 3.62063 | 16369 ft | 418 kts | 94° |
| 2026-04-25 14:46 | 48.93139 | 3.66441 | 16949 ft | 423 kts | 93° |
| 2026-04-25 14:47 | 48.92928 | 3.70926 | 17569 ft | 428 kts | 93° |
| 2026-04-25 14:47 | 48.92779 | 3.73988 | 17989 ft | 431 kts | 93° |
| 2026-04-25 14:47 | 48.92471 | 3.80045 | 18736 ft | 437 kts | 94° |
| 2026-04-25 14:47 | 48.92225 | 3.84666 | 19170 ft | 440 kts | 94° |
| 2026-04-25 14:48 | 48.91972 | 3.89335 | 19135 ft | 444 kts | 94° |
| 2026-04-25 14:48 | 48.91714 | 3.94007 | 19142 ft | 442 kts | 94° |
| 2026-04-25 14:48 | 48.91455 | 3.98648 | 19132 ft | 440 kts | 94° |
| 2026-04-25 14:48 | 48.91196 | 4.03272 | 19135 ft | 439 kts | 94° |
| 2026-04-25 14:49 | 48.90935 | 4.07903 | 19135 ft | 439 kts | 94° |
| 2026-04-25 14:49 | 48.90675 | 4.12522 | 19136 ft | 439 kts | 94° |
| 2026-04-25 14:49 | 48.90412 | 4.17130 | 19135 ft | 439 kts | 94° |
| 2026-04-25 14:49 | 48.90092 | 4.21737 | 19124 ft | 436 kts | 100° |
| 2026-04-25 14:50 | 48.89106 | 4.26071 | 19126 ft | 434 kts | 119° |
| 2026-04-25 14:50 | 48.87560 | 4.30047 | 19160 ft | 442 kts | 121° |
| 2026-04-25 14:50 | 48.85995 | 4.34094 | 19141 ft | 445 kts | 120° |
| 2026-04-25 14:50 | 48.84458 | 4.38166 | 19131 ft | 444 kts | 120° |
| 2026-04-25 14:51 | 48.82942 | 4.42242 | 19129 ft | 443 kts | 119° |
| 2026-04-25 14:51 | 48.81438 | 4.46318 | 19132 ft | 442 kts | 119° |
| 2026-04-25 14:51 | 48.79937 | 4.50398 | 19132 ft | 442 kts | 119° |
| 2026-04-25 14:51 | 48.78445 | 4.54457 | 19141 ft | 441 kts | 119° |
| 2026-04-25 14:52 | 48.76939 | 4.58546 | 19445 ft | 447 kts | 119° |
| 2026-04-25 14:52 | 48.75418 | 4.62670 | 20051 ft | 449 kts | 119° |
| 2026-04-25 14:52 | 48.73910 | 4.66753 | 20643 ft | 451 kts | 119° |
| 2026-04-25 14:52 | 48.72868 | 4.69566 | 20994 ft | 454 kts | 119° |
| 2026-04-25 14:53 | 48.70808 | 4.75120 | 21662 ft | 459 kts | 120° |
| 2026-04-25 14:53 | 48.69235 | 4.79353 | 22179 ft | 463 kts | 119° |
| 2026-04-25 14:53 | 48.67639 | 4.83640 | 22595 ft | 470 kts | 119° |
| 2026-04-25 14:53 | 48.66030 | 4.87955 | 23075 ft | 474 kts | 119° |
| 2026-04-25 14:54 | 48.64401 | 4.92317 | 23591 ft | 477 kts | 119° |
| 2026-04-25 14:54 | 48.62765 | 4.96692 | 24051 ft | 479 kts | 119° |
| 2026-04-25 14:54 | 48.61118 | 5.01087 | 24497 ft | 481 kts | 119° |
| 2026-04-25 14:54 | 48.59462 | 5.05498 | 24942 ft | 484 kts | 120° |
| 2026-04-25 14:55 | 48.57797 | 5.09925 | 25368 ft | 486 kts | 120° |
| 2026-04-25 14:55 | 48.56122 | 5.14375 | 25794 ft | 489 kts | 120° |
| 2026-04-25 14:55 | 48.54436 | 5.18846 | 26182 ft | 491 kts | 120° |
| 2026-04-25 14:55 | 48.52738 | 5.23338 | 26566 ft | 494 kts | 119° |
| 2026-04-25 14:56 | 48.51028 | 5.27856 | 26947 ft | 497 kts | 119° |
| 2026-04-25 14:56 | 48.49307 | 5.32396 | 27327 ft | 499 kts | 119° |
| 2026-04-25 14:56 | 48.47577 | 5.36951 | 27702 ft | 501 kts | 119° |
| 2026-04-25 14:56 | 48.45859 | 5.41468 | 28071 ft | 504 kts | 119° |
| 2026-04-25 14:57 | 48.44088 | 5.46116 | 28432 ft | 506 kts | 120° |
| 2026-04-25 14:57 | 48.42330 | 5.50719 | 28774 ft | 508 kts | 120° |
| 2026-04-25 14:57 | 48.40587 | 5.55277 | 29077 ft | 510 kts | 120° |
| 2026-04-25 14:57 | 48.38812 | 5.59912 | 29373 ft | 512 kts | 120° |
| 2026-04-25 14:58 | 48.37027 | 5.64564 | 29656 ft | 515 kts | 119° |
| 2026-04-25 14:58 | 48.35233 | 5.69231 | 29981 ft | 515 kts | 119° |
| 2026-04-25 14:58 | 48.33437 | 5.73901 | 30375 ft | 514 kts | 119° |
| 2026-04-25 14:58 | 48.31647 | 5.78542 | 30756 ft | 512 kts | 120° |
| 2026-04-25 14:59 | 48.29915 | 5.83212 | 31053 ft | 512 kts | 117° |
| 2026-04-25 14:59 | 48.28323 | 5.88026 | 31087 ft | 516 kts | 115° |
| 2026-04-25 14:59 | 48.25333 | 5.97785 | 31122 ft | 511 kts | 114° |
| 2026-04-25 15:00 | 48.22357 | 6.07450 | 31141 ft | 511 kts | 114° |
| 2026-04-25 15:00 | 48.19302 | 6.17086 | 31126 ft | 512 kts | 114° |
| 2026-04-25 15:01 | 48.16205 | 6.26707 | 31124 ft | 513 kts | 115° |
| 2026-04-25 15:01 | 48.13091 | 6.36335 | 31122 ft | 514 kts | 115° |
| 2026-04-25 15:02 | 48.10498 | 6.44335 | 31124 ft | 514 kts | 114° |
| 2026-04-25 15:02 | 48.07376 | 6.53947 | 31116 ft | 513 kts | 114° |
| 2026-04-25 15:03 | 48.04244 | 6.63553 | 31118 ft | 513 kts | 114° |
| 2026-04-25 15:03 | 48.01130 | 6.73068 | 31107 ft | 512 kts | 115° |
| 2026-04-25 15:04 | 47.97992 | 6.82618 | 31119 ft | 512 kts | 115° |
| 2026-04-25 15:04 | 47.94845 | 6.92161 | 31108 ft | 512 kts | 115° |
| 2026-04-25 15:05 | 47.91705 | 7.01647 | 31089 ft | 511 kts | 115° |
| 2026-04-25 15:06 | 47.86975 | 7.15888 | 31096 ft | 510 kts | 115° |
| 2026-04-25 15:06 | 47.83808 | 7.25344 | 31103 ft | 511 kts | 115° |
| 2026-04-25 15:07 | 47.80628 | 7.34832 | 31099 ft | 513 kts | 115° |
| 2026-04-25 15:07 | 47.77436 | 7.44331 | 31095 ft | 513 kts | 115° |
| 2026-04-25 15:08 | 47.74196 | 7.53787 | 31074 ft | 514 kts | 118° |
| 2026-04-25 15:08 | 47.70174 | 7.62568 | 31093 ft | 515 kts | 126° |
| 2026-04-25 15:09 | 47.65854 | 7.71076 | 31082 ft | 516 kts | 126° |
| 2026-04-25 15:09 | 47.59432 | 7.83864 | 31069 ft | 515 kts | 125° |
| 2026-04-25 15:10 | 47.55169 | 7.92391 | 31095 ft | 515 kts | 125° |
| 2026-04-25 15:11 | 47.48790 | 8.05100 | 31090 ft | 515 kts | 125° |
| 2026-04-25 15:11 | 47.44525 | 8.13555 | 31094 ft | 514 kts | 126° |
| 2026-04-25 15:12 | 47.38090 | 8.26267 | 31091 ft | 514 kts | 126° |
| 2026-04-25 15:12 | 47.34520 | 8.33294 | 31109 ft | 514 kts | 126° |
| 2026-04-25 15:13 | 47.27348 | 8.47363 | 31080 ft | 514 kts | 126° |
| 2026-04-25 15:14 | 47.23100 | 8.55763 | 31082 ft | 514 kts | 125° |
| 2026-04-25 15:14 | 47.18896 | 8.64293 | 31084 ft | 515 kts | 124° |
| 2026-04-25 15:15 | 47.14696 | 8.72813 | 31076 ft | 514 kts | 124° |
| 2026-04-25 15:15 | 47.10474 | 8.81315 | 31094 ft | 514 kts | 124° |
| 2026-04-25 15:16 | 47.06245 | 8.89785 | 31097 ft | 514 kts | 124° |
| 2026-04-25 15:16 | 46.99924 | 9.02395 | 31072 ft | 514 kts | 125° |
| 2026-04-25 15:17 | 46.93569 | 9.15018 | 31093 ft | 513 kts | 124° |
| 2026-04-25 15:18 | 46.89331 | 9.23407 | 31084 ft | 513 kts | 124° |
| 2026-04-25 15:18 | 46.82941 | 9.36004 | 31076 ft | 512 kts | 124° |
| 2026-04-25 15:19 | 46.79406 | 9.42948 | 31098 ft | 513 kts | 124° |
| 2026-04-25 15:19 | 46.74443 | 9.52677 | 31098 ft | 515 kts | 126° |
| 2026-04-25 15:20 | 46.70141 | 9.61074 | 31081 ft | 517 kts | 126° |
| 2026-04-25 15:20 | 46.65837 | 9.69451 | 31108 ft | 516 kts | 126° |
| 2026-04-25 15:21 | 46.61519 | 9.77834 | 31126 ft | 517 kts | 127° |
| 2026-04-25 15:21 | 46.57192 | 9.86205 | 31110 ft | 515 kts | 127° |
| 2026-04-25 15:22 | 46.52923 | 9.94442 | 31082 ft | 514 kts | 128° |
| 2026-04-25 15:22 | 46.48589 | 10.02784 | 31096 ft | 522 kts | 128° |
| 2026-04-25 15:23 | 46.44318 | 10.11299 | 31094 ft | 522 kts | 127° |
| 2026-04-25 15:23 | 46.40241 | 10.19975 | 31082 ft | 519 kts | 126° |
| 2026-04-25 15:24 | 46.36185 | 10.28591 | 31101 ft | 516 kts | 127° |
| 2026-04-25 15:24 | 46.32792 | 10.35701 | 31083 ft | 516 kts | 127° |
| 2026-04-25 15:25 | 46.28004 | 10.45645 | 31083 ft | 515 kts | 128° |
| 2026-04-25 15:25 | 46.23908 | 10.54114 | 31079 ft | 513 kts | 129° |
| 2026-04-25 15:26 | 46.19814 | 10.62560 | 31087 ft | 513 kts | 129° |
| 2026-04-25 15:26 | 46.15741 | 10.70936 | 31088 ft | 513 kts | 129° |
| 2026-04-25 15:27 | 46.11654 | 10.79328 | 31105 ft | 510 kts | 129° |
| 2026-04-25 15:28 | 46.05505 | 10.91889 | 31093 ft | 512 kts | 129° |
| 2026-04-25 15:28 | 46.01384 | 11.00281 | 31065 ft | 514 kts | 129° |
| 2026-04-25 15:29 | 45.97246 | 11.08687 | 31063 ft | 515 kts | 129° |
| 2026-04-25 15:29 | 45.93098 | 11.17087 | 31051 ft | 515 kts | 129° |
| 2026-04-25 15:30 | 45.88947 | 11.25461 | 31054 ft | 514 kts | 129° |
| 2026-04-25 15:30 | 45.84831 | 11.33741 | 31058 ft | 512 kts | 129° |
| 2026-04-25 15:31 | 45.80688 | 11.42055 | 31031 ft | 512 kts | 129° |
| 2026-04-25 15:31 | 45.76537 | 11.50360 | 31020 ft | 513 kts | 129° |
| 2026-04-25 15:32 | 45.72370 | 11.58673 | 31008 ft | 513 kts | 129° |
| 2026-04-25 15:32 | 45.68205 | 11.66957 | 31011 ft | 513 kts | 129° |
| 2026-04-25 15:33 | 45.61936 | 11.79380 | 31001 ft | 513 kts | 129° |
| 2026-04-25 15:33 | 45.57754 | 11.87640 | 31013 ft | 512 kts | 129° |
| 2026-04-25 15:34 | 45.53577 | 11.95867 | 30977 ft | 511 kts | 129° |
| 2026-04-25 15:34 | 45.50849 | 12.01333 | 30986 ft | 511 kts | 128° |
| 2026-04-25 15:35 | 45.43572 | 12.16679 | 31011 ft | 510 kts | 127° |
| 2026-04-25 15:36 | 45.37589 | 12.29196 | 31014 ft | 509 kts | 127° |
| 2026-04-25 15:36 | 45.33589 | 12.37492 | 31019 ft | 508 kts | 127° |
| 2026-04-25 15:37 | 45.29585 | 12.45772 | 31024 ft | 508 kts | 127° |
| 2026-04-25 15:37 | 45.25583 | 12.54026 | 31010 ft | 508 kts | 127° |
| 2026-04-25 15:38 | 45.21572 | 12.62281 | 31016 ft | 507 kts | 127° |
| 2026-04-25 15:38 | 45.17587 | 12.70456 | 31013 ft | 507 kts | 127° |
| 2026-04-25 15:39 | 45.13567 | 12.78680 | 31017 ft | 507 kts | 127° |
| 2026-04-25 15:39 | 45.09546 | 12.86883 | 31014 ft | 507 kts | 127° |
| 2026-04-25 15:40 | 45.06851 | 12.92369 | 31020 ft | 507 kts | 127° |
| 2026-04-25 15:40 | 45.01488 | 13.03256 | 31012 ft | 506 kts | 127° |
| 2026-04-25 15:41 | 44.97204 | 13.11106 | 31014 ft | 503 kts | 135° |
| 2026-04-25 15:41 | 44.92201 | 13.17854 | 31025 ft | 500 kts | 139° |
| 2026-04-25 15:42 | 44.87115 | 13.24583 | 31021 ft | 500 kts | 139° |
| 2026-04-25 15:42 | 44.82060 | 13.31330 | 31022 ft | 500 kts | 139° |
| 2026-04-25 15:43 | 44.77013 | 13.38089 | 31020 ft | 500 kts | 139° |
| 2026-04-25 15:43 | 44.71972 | 13.44826 | 31019 ft | 500 kts | 139° |
| 2026-04-25 15:44 | 44.66928 | 13.51548 | 31019 ft | 500 kts | 139° |
| 2026-04-25 15:44 | 44.61880 | 13.58255 | 31019 ft | 499 kts | 139° |
| 2026-04-25 15:45 | 44.56856 | 13.64912 | 31018 ft | 499 kts | 139° |
| 2026-04-25 15:45 | 44.53472 | 13.69388 | 31019 ft | 499 kts | 139° |
| 2026-04-25 15:46 | 44.46749 | 13.78258 | 31023 ft | 498 kts | 139° |
| 2026-04-25 15:46 | 44.41693 | 13.84907 | 31024 ft | 498 kts | 139° |
| 2026-04-25 15:47 | 44.36643 | 13.91533 | 31027 ft | 498 kts | 139° |
| 2026-04-25 15:47 | 44.31586 | 13.98152 | 31023 ft | 497 kts | 139° |
| 2026-04-25 15:48 | 44.26542 | 14.04738 | 31029 ft | 496 kts | 139° |
| 2026-04-25 15:48 | 44.22357 | 14.10190 | 31029 ft | 495 kts | 139° |
| 2026-04-25 15:49 | 44.16500 | 14.17801 | 31032 ft | 495 kts | 139° |
| 2026-04-25 15:49 | 44.11464 | 14.24328 | 31043 ft | 494 kts | 139° |
| 2026-04-25 15:50 | 44.06426 | 14.30841 | 31039 ft | 494 kts | 139° |
| 2026-04-25 15:50 | 44.02233 | 14.36251 | 31038 ft | 494 kts | 139° |
| 2026-04-25 15:51 | 43.98012 | 14.41684 | 31036 ft | 493 kts | 139° |
| 2026-04-25 15:51 | 43.92154 | 14.49208 | 31038 ft | 493 kts | 139° |
| 2026-04-25 15:52 | 43.87113 | 14.55665 | 31041 ft | 493 kts | 139° |
| 2026-04-25 15:52 | 43.82069 | 14.62112 | 31041 ft | 493 kts | 139° |
| 2026-04-25 15:53 | 43.77019 | 14.68550 | 31044 ft | 494 kts | 139° |
| 2026-04-25 15:53 | 43.71964 | 14.74978 | 31044 ft | 494 kts | 139° |
| 2026-04-25 15:54 | 43.66899 | 14.81405 | 31041 ft | 494 kts | 139° |
| 2026-04-25 15:54 | 43.61830 | 14.87822 | 31039 ft | 494 kts | 139° |
| 2026-04-25 15:55 | 43.56802 | 14.94175 | 31047 ft | 493 kts | 139° |
| 2026-04-25 15:55 | 43.51914 | 15.00809 | 31050 ft | 493 kts | 134° |
| 2026-04-25 15:56 | 43.47214 | 15.07726 | 31032 ft | 493 kts | 134° |
| 2026-04-25 15:56 | 43.42524 | 15.14615 | 31040 ft | 493 kts | 134° |
| 2026-04-25 15:57 | 43.37821 | 15.21475 | 31036 ft | 492 kts | 134° |
| 2026-04-25 15:57 | 43.33114 | 15.28308 | 31035 ft | 492 kts | 135° |
| 2026-04-25 15:58 | 43.28430 | 15.35088 | 31030 ft | 492 kts | 135° |
| 2026-04-25 15:58 | 43.23717 | 15.41895 | 31038 ft | 492 kts | 135° |
| 2026-04-25 15:59 | 43.19002 | 15.48691 | 31042 ft | 492 kts | 135° |
| 2026-04-25 15:59 | 43.14282 | 15.55477 | 31034 ft | 492 kts | 134° |
| 2026-04-25 16:00 | 43.10358 | 15.61107 | 31040 ft | 491 kts | 135° |
| 2026-04-25 16:00 | 43.04842 | 15.69001 | 31045 ft | 491 kts | 135° |
| 2026-04-25 16:01 | 43.00113 | 15.75751 | 31040 ft | 491 kts | 135° |
| 2026-04-25 16:01 | 42.95381 | 15.82490 | 31046 ft | 491 kts | 135° |
| 2026-04-25 16:02 | 42.90683 | 15.89165 | 31041 ft | 491 kts | 134° |
| 2026-04-25 16:02 | 42.85944 | 15.95882 | 31044 ft | 490 kts | 134° |
| 2026-04-25 16:03 | 42.81221 | 16.02560 | 31048 ft | 490 kts | 134° |
| 2026-04-25 16:03 | 42.76480 | 16.09249 | 31121 ft | 492 kts | 134° |
| 2026-04-25 16:04 | 42.74099 | 16.12603 | 31391 ft | 492 kts | 134° |
| 2026-04-25 16:04 | 42.71728 | 16.15938 | 31759 ft | 490 kts | 134° |
| 2026-04-25 16:04 | 42.69361 | 16.19263 | 32143 ft | 488 kts | 135° |
| 2026-04-25 16:04 | 42.67031 | 16.22534 | 32498 ft | 486 kts | 135° |
| 2026-04-25 16:05 | 42.64683 | 16.25825 | 32863 ft | 484 kts | 135° |
| 2026-04-25 16:05 | 42.62334 | 16.29114 | 33003 ft | 487 kts | 135° |
| 2026-04-25 16:06 | 42.55238 | 16.39024 | 33034 ft | 485 kts | 135° |
| 2026-04-25 16:06 | 42.50556 | 16.45546 | 33042 ft | 482 kts | 134° |
| 2026-04-25 16:07 | 42.45879 | 16.52047 | 33041 ft | 481 kts | 134° |
| 2026-04-25 16:07 | 42.41200 | 16.58533 | 33042 ft | 481 kts | 134° |
| 2026-04-25 16:08 | 42.36548 | 16.64967 | 33044 ft | 482 kts | 134° |
| 2026-04-25 16:08 | 42.31858 | 16.71441 | 33042 ft | 482 kts | 134° |
| 2026-04-25 16:09 | 42.27152 | 16.77923 | 33036 ft | 483 kts | 134° |
| 2026-04-25 16:09 | 42.22438 | 16.84400 | 33040 ft | 483 kts | 134° |
| 2026-04-25 16:10 | 42.17723 | 16.90865 | 33042 ft | 483 kts | 134° |
| 2026-04-25 16:10 | 42.13030 | 16.97284 | 33047 ft | 482 kts | 134° |
| 2026-04-25 16:11 | 42.08326 | 17.03705 | 33037 ft | 481 kts | 134° |
| 2026-04-25 16:11 | 42.03631 | 17.10099 | 33036 ft | 480 kts | 134° |
| 2026-04-25 16:12 | 41.98942 | 17.16474 | 33042 ft | 479 kts | 134° |
| 2026-04-25 16:12 | 41.94228 | 17.22825 | 33037 ft | 480 kts | 136° |
| 2026-04-25 16:13 | 41.88941 | 17.28284 | 33045 ft | 481 kts | 147° |
| 2026-04-25 16:13 | 41.83276 | 17.33060 | 33037 ft | 481 kts | 147° |
| 2026-04-25 16:14 | 41.77615 | 17.37856 | 33035 ft | 481 kts | 147° |
| 2026-04-25 16:14 | 41.71964 | 17.42680 | 33040 ft | 482 kts | 146° |
| 2026-04-25 16:15 | 41.66341 | 17.47489 | 33038 ft | 482 kts | 146° |
| 2026-04-25 16:15 | 41.60676 | 17.52325 | 33034 ft | 482 kts | 146° |
| 2026-04-25 16:16 | 41.55015 | 17.57146 | 33037 ft | 482 kts | 146° |
| 2026-04-25 16:16 | 41.49350 | 17.61959 | 33034 ft | 482 kts | 146° |
| 2026-04-25 16:17 | 41.43685 | 17.66761 | 33038 ft | 482 kts | 146° |
| 2026-04-25 16:17 | 41.38060 | 17.71519 | 33034 ft | 481 kts | 146° |
| 2026-04-25 16:18 | 41.32405 | 17.76293 | 33037 ft | 482 kts | 146° |
| 2026-04-25 16:18 | 41.26742 | 17.81064 | 33037 ft | 482 kts | 146° |
| 2026-04-25 16:19 | 41.21065 | 17.85837 | 33035 ft | 482 kts | 146° |
| 2026-04-25 16:19 | 41.15392 | 17.90596 | 33038 ft | 482 kts | 146° |
| 2026-04-25 16:20 | 41.06888 | 17.97712 | 33033 ft | 482 kts | 146° |
| 2026-04-25 16:21 | 40.98375 | 18.04813 | 33032 ft | 481 kts | 146° |
| 2026-04-25 16:21 | 40.92705 | 18.09530 | 33031 ft | 481 kts | 146° |
| 2026-04-25 16:22 | 40.87032 | 18.14241 | 33033 ft | 481 kts | 146° |
| 2026-04-25 16:22 | 40.81366 | 18.18936 | 33032 ft | 481 kts | 146° |
| 2026-04-25 16:23 | 40.75700 | 18.23622 | 33027 ft | 480 kts | 146° |
| 2026-04-25 16:23 | 40.70065 | 18.28272 | 33030 ft | 480 kts | 146° |
| 2026-04-25 16:24 | 40.64399 | 18.32938 | 33027 ft | 480 kts | 146° |
| 2026-04-25 16:24 | 40.58733 | 18.37595 | 33027 ft | 480 kts | 146° |
| 2026-04-25 16:25 | 40.53068 | 18.42242 | 33031 ft | 480 kts | 146° |
| 2026-04-25 16:25 | 40.47394 | 18.46886 | 33036 ft | 480 kts | 145° |
| 2026-04-25 16:26 | 40.41724 | 18.51519 | 33025 ft | 480 kts | 145° |
| 2026-04-25 16:26 | 40.36053 | 18.56142 | 33024 ft | 480 kts | 145° |
| 2026-04-25 16:27 | 40.30383 | 18.60756 | 33028 ft | 480 kts | 145° |
| 2026-04-25 16:27 | 40.24713 | 18.65361 | 33025 ft | 479 kts | 145° |
| 2026-04-25 16:28 | 40.19073 | 18.69931 | 33029 ft | 479 kts | 145° |
| 2026-04-25 16:28 | 40.13409 | 18.74513 | 33026 ft | 479 kts | 145° |
| 2026-04-25 16:29 | 40.07733 | 18.79095 | 33022 ft | 479 kts | 145° |
| 2026-04-25 16:29 | 40.02052 | 18.83672 | 33040 ft | 479 kts | 145° |
| 2026-04-25 16:30 | 39.96374 | 18.88238 | 33025 ft | 479 kts | 145° |
| 2026-04-25 16:30 | 39.90694 | 18.92798 | 33028 ft | 479 kts | 145° |
| 2026-04-25 16:31 | 39.85005 | 18.97356 | 33029 ft | 480 kts | 145° |
| 2026-04-25 16:31 | 39.79478 | 19.02155 | 33013 ft | 476 kts | 138° |
| 2026-04-25 16:32 | 39.74342 | 19.07519 | 33029 ft | 476 kts | 137° |
| 2026-04-25 16:32 | 39.69181 | 19.12906 | 33030 ft | 476 kts | 137° |
| 2026-04-25 16:33 | 39.63989 | 19.18277 | 33020 ft | 476 kts | 137° |
| 2026-04-25 16:33 | 39.58796 | 19.23617 | 33012 ft | 476 kts | 138° |
| 2026-04-25 16:34 | 39.53602 | 19.28944 | 33006 ft | 476 kts | 138° |
| 2026-04-25 16:34 | 39.48407 | 19.34262 | 33015 ft | 476 kts | 138° |
| 2026-04-25 16:35 | 39.43211 | 19.39572 | 32999 ft | 476 kts | 138° |
| 2026-04-25 16:35 | 39.38011 | 19.44875 | 32999 ft | 476 kts | 138° |
| 2026-04-25 16:36 | 39.32838 | 19.50141 | 32995 ft | 476 kts | 137° |
| 2026-04-25 16:36 | 39.27625 | 19.55438 | 33005 ft | 476 kts | 138° |
| 2026-04-25 16:37 | 39.22414 | 19.60722 | 33002 ft | 476 kts | 138° |
| 2026-04-25 16:37 | 39.18073 | 19.65116 | 33004 ft | 477 kts | 138° |
| 2026-04-25 16:38 | 39.12002 | 19.71250 | 33004 ft | 477 kts | 138° |
| 2026-04-25 16:38 | 39.07627 | 19.75661 | 33004 ft | 477 kts | 138° |
| 2026-04-25 16:39 | 39.02397 | 19.80925 | 33019 ft | 477 kts | 137° |
| 2026-04-25 16:39 | 38.97155 | 19.86191 | 33009 ft | 478 kts | 137° |
| 2026-04-25 16:40 | 38.92787 | 19.90572 | 33012 ft | 478 kts | 137° |
| 2026-04-25 16:40 | 38.86697 | 19.96667 | 33012 ft | 478 kts | 138° |
| 2026-04-25 16:41 | 38.81453 | 20.01904 | 33010 ft | 478 kts | 138° |
| 2026-04-25 16:41 | 38.73572 | 20.09757 | 33008 ft | 478 kts | 138° |
| 2026-04-25 16:42 | 38.68324 | 20.14974 | 33029 ft | 478 kts | 138° |
| 2026-04-25 16:42 | 38.63101 | 20.20156 | 33012 ft | 478 kts | 138° |
| 2026-04-25 16:43 | 38.57847 | 20.25358 | 33013 ft | 477 kts | 138° |
| 2026-04-25 16:43 | 38.52595 | 20.30549 | 33013 ft | 477 kts | 138° |
| 2026-04-25 16:44 | 38.47336 | 20.35737 | 33013 ft | 477 kts | 138° |
| 2026-04-25 16:44 | 38.42075 | 20.40917 | 33025 ft | 477 kts | 138° |
| 2026-04-25 16:45 | 38.36815 | 20.46087 | 33005 ft | 477 kts | 138° |
| 2026-04-25 16:45 | 38.31587 | 20.51215 | 33004 ft | 477 kts | 138° |
| 2026-04-25 16:46 | 38.26319 | 20.56373 | 33003 ft | 477 kts | 138° |
| 2026-04-25 16:46 | 38.21908 | 20.60683 | 33000 ft | 477 kts | 138° |
| 2026-04-25 16:47 | 38.15784 | 20.66659 | 33012 ft | 477 kts | 138° |
| 2026-04-25 16:47 | 38.10507 | 20.71797 | 32996 ft | 477 kts | 138° |
| 2026-04-25 16:48 | 38.05246 | 20.76908 | 32984 ft | 476 kts | 138° |
| 2026-04-25 16:48 | 37.99995 | 20.82001 | 32999 ft | 475 kts | 138° |
| 2026-04-25 16:49 | 37.94742 | 20.87088 | 32992 ft | 475 kts | 138° |
| 2026-04-25 16:49 | 37.89489 | 20.92164 | 33013 ft | 475 kts | 137° |
| 2026-04-25 16:50 | 37.84265 | 20.97204 | 32996 ft | 475 kts | 138° |
| 2026-04-25 16:50 | 37.79000 | 21.02274 | 32993 ft | 476 kts | 138° |
| 2026-04-25 16:51 | 37.73731 | 21.07337 | 32993 ft | 476 kts | 138° |
| 2026-04-25 16:51 | 37.69313 | 21.11576 | 32992 ft | 476 kts | 138° |
| 2026-04-25 16:52 | 37.63179 | 21.17452 | 32995 ft | 476 kts | 138° |
| 2026-04-25 16:52 | 37.57895 | 21.22503 | 32987 ft | 476 kts | 138° |
| 2026-04-25 16:53 | 37.49973 | 21.30058 | 32985 ft | 476 kts | 139° |
| 2026-04-25 16:54 | 37.44692 | 21.35082 | 32996 ft | 476 kts | 139° |
| 2026-04-25 16:54 | 37.39445 | 21.40065 | 32990 ft | 476 kts | 139° |
| 2026-04-25 16:55 | 37.34163 | 21.45074 | 33004 ft | 476 kts | 139° |
| 2026-04-25 16:55 | 37.28874 | 21.50080 | 33001 ft | 476 kts | 139° |
| 2026-04-25 16:56 | 37.23574 | 21.55086 | 33004 ft | 476 kts | 139° |
| 2026-04-25 16:56 | 37.18273 | 21.60084 | 32998 ft | 477 kts | 140° |
| 2026-04-25 16:57 | 37.12993 | 21.65054 | 32998 ft | 477 kts | 140° |
| 2026-04-25 16:57 | 37.07683 | 21.70044 | 33011 ft | 477 kts | 140° |
| 2026-04-25 16:58 | 37.02357 | 21.75039 | 32997 ft | 477 kts | 141° |
| 2026-04-25 16:58 | 36.97040 | 21.80016 | 33005 ft | 477 kts | 141° |
| 2026-04-25 16:59 | 36.91715 | 21.84992 | 32999 ft | 477 kts | 141° |
| 2026-04-25 16:59 | 36.86391 | 21.89958 | 32997 ft | 478 kts | 141° |
| 2026-04-25 17:00 | 36.81059 | 21.94923 | 32991 ft | 478 kts | 141° |
| 2026-04-25 17:00 | 36.75733 | 21.99875 | 33008 ft | 477 kts | 142° |
| 2026-04-25 17:01 | 36.70407 | 22.04816 | 32999 ft | 477 kts | 142° |
| 2026-04-25 17:01 | 36.65111 | 22.09721 | 32995 ft | 477 kts | 142° |
| 2026-04-25 17:02 | 36.59785 | 22.14646 | 33004 ft | 477 kts | 142° |
| 2026-04-25 17:02 | 36.54447 | 22.19573 | 32996 ft | 477 kts | 142° |
| 2026-04-25 17:03 | 36.49100 | 22.24499 | 33000 ft | 478 kts | 142° |
| 2026-04-25 17:03 | 36.43749 | 22.29421 | 32994 ft | 479 kts | 142° |
| 2026-04-25 17:04 | 36.38389 | 22.34342 | 32993 ft | 479 kts | 142° |
| 2026-04-25 17:04 | 36.33058 | 22.39228 | 32992 ft | 480 kts | 142° |
| 2026-04-25 17:05 | 36.27680 | 22.44149 | 32994 ft | 480 kts | 142° |
| 2026-04-25 17:05 | 36.19604 | 22.51521 | 33000 ft | 482 kts | 142° |
| 2026-04-25 17:06 | 36.14190 | 22.56454 | 32995 ft | 484 kts | 142° |
| 2026-04-25 17:06 | 36.08746 | 22.61404 | 32998 ft | 485 kts | 142° |
| 2026-04-25 17:07 | 36.03288 | 22.66358 | 32998 ft | 486 kts | 142° |
| 2026-04-25 17:07 | 35.97874 | 22.71264 | 32993 ft | 486 kts | 142° |
| 2026-04-25 17:08 | 35.92415 | 22.76201 | 32986 ft | 486 kts | 142° |
| 2026-04-25 17:08 | 35.86951 | 22.81136 | 32980 ft | 487 kts | 141° |
| 2026-04-25 17:09 | 35.81477 | 22.86071 | 32990 ft | 487 kts | 141° |
| 2026-04-25 17:09 | 35.76000 | 22.90999 | 32991 ft | 488 kts | 141° |
| 2026-04-25 17:10 | 35.70512 | 22.95928 | 32990 ft | 488 kts | 141° |
| 2026-04-25 17:10 | 35.65020 | 23.00852 | 32973 ft | 489 kts | 142° |
| 2026-04-25 17:11 | 35.59541 | 23.05758 | 32972 ft | 491 kts | 141° |
| 2026-04-25 17:11 | 35.54001 | 23.10709 | 32976 ft | 492 kts | 142° |
| 2026-04-25 17:12 | 35.48483 | 23.15631 | 32966 ft | 494 kts | 142° |
| 2026-04-25 17:12 | 35.42911 | 23.20593 | 32963 ft | 496 kts | 142° |
| 2026-04-25 17:13 | 35.39170 | 23.23919 | 32958 ft | 497 kts | 142° |
| 2026-04-25 17:13 | 35.31679 | 23.30569 | 32946 ft | 501 kts | 141° |
| 2026-04-25 17:14 | 35.26017 | 23.35584 | 32952 ft | 503 kts | 142° |
| 2026-04-25 17:14 | 35.20357 | 23.40588 | 32930 ft | 500 kts | 141° |
| 2026-04-25 17:15 | 35.14771 | 23.45517 | 32933 ft | 496 kts | 142° |
| 2026-04-25 17:15 | 35.09170 | 23.50453 | 32924 ft | 498 kts | 143° |
| 2026-04-25 17:16 | 35.03501 | 23.55443 | 32920 ft | 506 kts | 143° |
| 2026-04-25 17:16 | 34.97775 | 23.60470 | 32902 ft | 506 kts | 142° |
| 2026-04-25 17:17 | 34.92111 | 23.65433 | 32893 ft | 503 kts | 142° |
| 2026-04-25 17:17 | 34.86431 | 23.70402 | 32908 ft | 502 kts | 143° |
| 2026-04-25 17:18 | 34.80754 | 23.75363 | 32916 ft | 503 kts | 143° |
| 2026-04-25 17:18 | 34.75074 | 23.80314 | 32893 ft | 500 kts | 143° |
| 2026-04-25 17:19 | 34.69462 | 23.85200 | 32890 ft | 498 kts | 143° |
| 2026-04-25 17:19 | 34.63830 | 23.90094 | 32890 ft | 497 kts | 143° |
| 2026-04-25 17:20 | 34.58201 | 23.94979 | 32892 ft | 497 kts | 143° |
| 2026-04-25 17:20 | 34.52568 | 23.99858 | 32886 ft | 499 kts | 144° |
| 2026-04-25 17:21 | 34.46883 | 24.04774 | 32894 ft | 503 kts | 144° |
| 2026-04-25 17:21 | 34.41155 | 24.09717 | 32898 ft | 507 kts | 144° |
| 2026-04-25 17:22 | 34.37302 | 24.13038 | 32894 ft | 509 kts | 144° |
| 2026-04-25 17:22 | 34.29614 | 24.19654 | 32877 ft | 509 kts | 144° |
| 2026-04-25 17:23 | 34.23835 | 24.24616 | 32866 ft | 508 kts | 146° |
| 2026-04-25 17:23 | 34.18057 | 24.29571 | 32876 ft | 509 kts | 146° |
| 2026-04-25 17:24 | 34.12304 | 24.34494 | 32885 ft | 510 kts | 146° |
| 2026-04-25 17:24 | 34.06503 | 24.39452 | 32885 ft | 511 kts | 146° |
| 2026-04-25 17:25 | 34.01676 | 24.43570 | 32878 ft | 511 kts | 146° |
| 2026-04-25 17:25 | 33.96162 | 24.48982 | 32886 ft | 511 kts | 139° |
| 2026-04-25 17:26 | 33.90901 | 24.54719 | 32874 ft | 511 kts | 140° |
| 2026-04-25 17:26 | 33.85612 | 24.60463 | 32883 ft | 512 kts | 140° |
| 2026-04-25 17:27 | 33.80275 | 24.66204 | 32878 ft | 514 kts | 140° |
| 2026-04-25 17:27 | 33.75840 | 24.70953 | 32881 ft | 515 kts | 140° |
| 2026-04-25 17:28 | 33.69577 | 24.77643 | 32877 ft | 515 kts | 140° |
| 2026-04-25 17:28 | 33.64245 | 24.83332 | 32875 ft | 516 kts | 141° |
| 2026-04-25 17:29 | 33.58875 | 24.89053 | 32884 ft | 516 kts | 141° |
| 2026-04-25 17:29 | 33.53506 | 24.94762 | 32882 ft | 516 kts | 141° |
| 2026-04-25 17:30 | 33.48125 | 25.00473 | 32879 ft | 516 kts | 141° |
| 2026-04-25 17:30 | 33.42755 | 25.06166 | 32874 ft | 515 kts | 142° |
| 2026-04-25 17:31 | 33.37394 | 25.11837 | 32879 ft | 514 kts | 142° |
| 2026-04-25 17:31 | 33.32037 | 25.17495 | 32876 ft | 513 kts | 142° |
| 2026-04-25 17:32 | 33.26692 | 25.23130 | 32882 ft | 512 kts | 142° |
| 2026-04-25 17:32 | 33.21387 | 25.28713 | 32880 ft | 511 kts | 142° |
| 2026-04-25 17:33 | 33.16046 | 25.34325 | 32875 ft | 511 kts | 142° |
| 2026-04-25 17:33 | 33.10708 | 25.39925 | 32884 ft | 510 kts | 142° |
| 2026-04-25 17:34 | 33.05381 | 25.45504 | 32879 ft | 509 kts | 142° |
| 2026-04-25 17:34 | 33.00054 | 25.51072 | 32873 ft | 508 kts | 142° |
| 2026-04-25 17:35 | 32.94733 | 25.56625 | 32891 ft | 509 kts | 142° |
| 2026-04-25 17:35 | 32.89409 | 25.62173 | 32890 ft | 510 kts | 142° |
| 2026-04-25 17:36 | 32.84065 | 25.67731 | 32899 ft | 509 kts | 143° |
| 2026-04-25 17:36 | 32.78760 | 25.73241 | 32895 ft | 508 kts | 143° |
| 2026-04-25 17:37 | 32.73440 | 25.78758 | 32903 ft | 507 kts | 143° |
| 2026-04-25 17:37 | 32.68116 | 25.84270 | 32883 ft | 506 kts | 143° |
| 2026-04-25 17:38 | 32.63695 | 25.88839 | 32903 ft | 507 kts | 143° |
| 2026-04-25 17:38 | 32.57508 | 25.95220 | 32890 ft | 508 kts | 143° |
| 2026-04-25 17:39 | 32.52161 | 26.00728 | 32908 ft | 508 kts | 143° |
| 2026-04-25 17:39 | 32.46822 | 26.06219 | 32915 ft | 508 kts | 143° |
| 2026-04-25 17:40 | 32.41474 | 26.11710 | 32917 ft | 508 kts | 144° |
| 2026-04-25 17:40 | 32.36130 | 26.17187 | 32924 ft | 508 kts | 144° |
| 2026-04-25 17:41 | 32.30811 | 26.22630 | 32933 ft | 509 kts | 144° |
| 2026-04-25 17:41 | 32.25444 | 26.28113 | 32920 ft | 510 kts | 144° |
| 2026-04-25 17:42 | 32.20069 | 26.33595 | 32934 ft | 510 kts | 144° |
| 2026-04-25 17:42 | 32.14685 | 26.39079 | 32936 ft | 511 kts | 144° |
| 2026-04-25 17:43 | 32.09298 | 26.44556 | 32943 ft | 511 kts | 144° |
| 2026-04-25 17:43 | 32.03939 | 26.49997 | 32938 ft | 511 kts | 144° |
| 2026-04-25 17:44 | 31.98548 | 26.55460 | 32943 ft | 511 kts | 144° |
| 2026-04-25 17:44 | 31.93147 | 26.60925 | 32937 ft | 511 kts | 145° |
| 2026-04-25 17:45 | 31.88667 | 26.65452 | 32944 ft | 510 kts | 145° |
| 2026-04-25 17:45 | 31.82370 | 26.71804 | 32942 ft | 510 kts | 145° |
| 2026-04-25 17:46 | 31.76978 | 26.77233 | 32945 ft | 510 kts | 145° |
| 2026-04-25 17:46 | 31.71618 | 26.82623 | 32941 ft | 509 kts | 145° |
| 2026-04-25 17:47 | 31.66230 | 26.88031 | 32925 ft | 510 kts | 146° |
| 2026-04-25 17:47 | 31.60826 | 26.93448 | 32940 ft | 510 kts | 146° |
| 2026-04-25 17:48 | 31.52726 | 27.01550 | 32940 ft | 510 kts | 146° |
| 2026-04-25 17:49 | 31.47352 | 27.06915 | 32935 ft | 510 kts | 146° |
| 2026-04-25 17:49 | 31.41940 | 27.12311 | 32900 ft | 510 kts | 146° |
| 2026-04-25 17:50 | 31.36532 | 27.17694 | 32912 ft | 511 kts | 146° |
| 2026-04-25 17:50 | 31.30874 | 27.22632 | 32949 ft | 502 kts | 155° |
| 2026-04-25 17:51 | 31.24712 | 27.26262 | 32956 ft | 494 kts | 163° |
| 2026-04-25 17:51 | 31.18444 | 27.29583 | 32933 ft | 495 kts | 162° |
| 2026-04-25 17:52 | 31.12212 | 27.32948 | 32888 ft | 496 kts | 162° |
| 2026-04-25 17:52 | 31.05956 | 27.36347 | 32924 ft | 496 kts | 162° |
| 2026-04-25 17:53 | 30.99685 | 27.39747 | 32931 ft | 497 kts | 162° |
| 2026-04-25 17:53 | 30.93476 | 27.43352 | 32925 ft | 504 kts | 156° |
| 2026-04-25 17:54 | 30.87736 | 27.48198 | 32921 ft | 513 kts | 148° |
| 2026-04-25 17:54 | 30.82199 | 27.53438 | 32907 ft | 512 kts | 148° |
| 2026-04-25 17:55 | 30.77596 | 27.57758 | 32923 ft | 511 kts | 148° |
| 2026-04-25 17:55 | 30.71133 | 27.63753 | 32916 ft | 511 kts | 148° |
| 2026-04-25 17:56 | 30.65558 | 27.68897 | 32938 ft | 511 kts | 148° |
| 2026-04-25 17:56 | 30.59978 | 27.74039 | 32912 ft | 512 kts | 148° |
| 2026-04-25 17:57 | 30.54402 | 27.79172 | 32912 ft | 512 kts | 148° |
| 2026-04-25 17:57 | 30.48817 | 27.84309 | 32909 ft | 512 kts | 148° |
| 2026-04-25 17:58 | 30.43260 | 27.89410 | 32908 ft | 514 kts | 148° |
| 2026-04-25 17:58 | 30.37650 | 27.94553 | 32905 ft | 515 kts | 148° |
| 2026-04-25 17:59 | 30.32014 | 27.99712 | 32916 ft | 515 kts | 148° |
| 2026-04-25 17:59 | 30.26385 | 28.04857 | 32907 ft | 516 kts | 148° |
| 2026-04-25 18:00 | 30.21685 | 28.09148 | 32940 ft | 516 kts | 148° |
| 2026-04-25 18:00 | 30.15141 | 28.15113 | 32898 ft | 515 kts | 148° |
| 2026-04-25 18:01 | 30.09511 | 28.20236 | 32894 ft | 515 kts | 148° |
| 2026-04-25 18:01 | 30.03882 | 28.25351 | 32890 ft | 515 kts | 148° |
| 2026-04-25 18:02 | 29.98252 | 28.30459 | 32890 ft | 514 kts | 148° |
| 2026-04-25 18:02 | 29.92629 | 28.35555 | 32897 ft | 514 kts | 148° |
| 2026-04-25 18:03 | 29.87100 | 28.40823 | 32887 ft | 519 kts | 143° |
| 2026-04-25 18:03 | 29.82310 | 28.47142 | 32907 ft | 528 kts | 133° |
| 2026-04-25 18:04 | 29.77900 | 28.53907 | 32901 ft | 528 kts | 133° |
| 2026-04-25 18:04 | 29.73436 | 28.60643 | 32922 ft | 528 kts | 134° |
| 2026-04-25 18:05 | 29.68947 | 28.67329 | 32900 ft | 528 kts | 134° |
| 2026-04-25 18:05 | 29.64456 | 28.74011 | 32914 ft | 528 kts | 134° |
| 2026-04-25 18:06 | 29.59960 | 28.80694 | 32898 ft | 528 kts | 134° |
| 2026-04-25 18:06 | 29.55465 | 28.87367 | 32900 ft | 528 kts | 134° |
| 2026-04-25 18:07 | 29.50997 | 28.93993 | 32890 ft | 528 kts | 134° |
| 2026-04-25 18:07 | 29.46493 | 29.00663 | 32892 ft | 528 kts | 134° |
| 2026-04-25 18:08 | 29.41803 | 29.07109 | 32885 ft | 522 kts | 142° |
| 2026-04-25 18:08 | 29.36341 | 29.12472 | 32902 ft | 513 kts | 151° |
| 2026-04-25 18:09 | 29.30588 | 29.17327 | 32899 ft | 515 kts | 151° |
| 2026-04-25 18:09 | 29.24838 | 29.22257 | 32897 ft | 516 kts | 150° |
| 2026-04-25 18:10 | 29.19127 | 29.27196 | 32889 ft | 517 kts | 150° |
| 2026-04-25 18:10 | 29.13380 | 29.32155 | 32902 ft | 517 kts | 151° |
| 2026-04-25 18:11 | 29.08583 | 29.36231 | 32900 ft | 516 kts | 152° |
| 2026-04-25 18:11 | 29.02768 | 29.41049 | 32900 ft | 516 kts | 152° |
| 2026-04-25 18:12 | 28.96945 | 29.45857 | 32901 ft | 516 kts | 152° |
| 2026-04-25 18:12 | 28.91126 | 29.50675 | 32901 ft | 517 kts | 152° |
| 2026-04-25 18:13 | 28.85304 | 29.55501 | 32885 ft | 517 kts | 152° |
| 2026-04-25 18:13 | 28.79489 | 29.60316 | 32894 ft | 517 kts | 152° |
| 2026-04-25 18:14 | 28.70729 | 29.67550 | 32903 ft | 520 kts | 152° |
| 2026-04-25 18:14 | 28.64862 | 29.72386 | 32902 ft | 521 kts | 152° |
| 2026-04-25 18:15 | 28.58982 | 29.77229 | 32898 ft | 522 kts | 152° |
| 2026-04-25 18:15 | 28.53130 | 29.82043 | 32857 ft | 522 kts | 153° |
| 2026-04-25 18:16 | 28.47245 | 29.86877 | 32892 ft | 521 kts | 153° |
| 2026-04-25 18:17 | 28.38402 | 29.94124 | 32906 ft | 522 kts | 153° |
| 2026-04-25 18:17 | 28.32500 | 29.98953 | 32904 ft | 523 kts | 153° |
| 2026-04-25 18:18 | 28.26585 | 30.03787 | 32904 ft | 524 kts | 153° |
| 2026-04-25 18:18 | 28.20662 | 30.08620 | 32859 ft | 524 kts | 153° |
| 2026-04-25 18:19 | 28.14789 | 30.13408 | 32885 ft | 523 kts | 154° |
| 2026-04-25 18:19 | 28.08870 | 30.18223 | 32904 ft | 524 kts | 154° |
| 2026-04-25 18:20 | 28.02941 | 30.23039 | 32911 ft | 525 kts | 154° |
| 2026-04-25 18:20 | 27.97002 | 30.27859 | 32912 ft | 526 kts | 154° |
| 2026-04-25 18:21 | 27.91057 | 30.32677 | 32906 ft | 526 kts | 154° |
| 2026-04-25 18:21 | 27.85107 | 30.37493 | 32908 ft | 525 kts | 154° |
| 2026-04-25 18:22 | 27.79158 | 30.42300 | 32914 ft | 525 kts | 154° |
| 2026-04-25 18:22 | 27.73208 | 30.47101 | 32917 ft | 525 kts | 154° |
| 2026-04-25 18:23 | 27.67290 | 30.51870 | 32918 ft | 526 kts | 154° |
| 2026-04-25 18:23 | 27.61330 | 30.56668 | 32921 ft | 526 kts | 154° |
| 2026-04-25 18:24 | 27.55365 | 30.61463 | 32897 ft | 526 kts | 155° |
| 2026-04-25 18:24 | 27.49415 | 30.66239 | 32933 ft | 526 kts | 155° |
| 2026-04-25 18:25 | 27.43448 | 30.71020 | 32933 ft | 527 kts | 155° |
| 2026-04-25 18:25 | 27.37464 | 30.75811 | 32941 ft | 527 kts | 155° |
| 2026-04-25 18:26 | 27.31487 | 30.80589 | 32943 ft | 528 kts | 155° |
| 2026-04-25 18:26 | 27.25503 | 30.85368 | 32942 ft | 528 kts | 155° |
| 2026-04-25 18:27 | 27.19518 | 30.90140 | 32947 ft | 527 kts | 155° |
| 2026-04-25 18:27 | 27.13560 | 30.94882 | 32943 ft | 528 kts | 155° |
| 2026-04-25 18:28 | 27.07569 | 30.99648 | 32946 ft | 529 kts | 155° |
| 2026-04-25 18:28 | 27.01849 | 31.05021 | 32945 ft | 545 kts | 144° |
| 2026-04-25 18:29 | 26.96853 | 31.11580 | 32944 ft | 556 kts | 137° |
| 2026-04-25 18:29 | 26.94442 | 31.14978 | 32936 ft | 556 kts | 137° |
| 2026-04-25 18:30 | 26.84774 | 31.28450 | 32936 ft | 554 kts | 139° |
| 2026-04-25 18:30 | 26.79927 | 31.35094 | 32919 ft | 554 kts | 139° |
| 2026-04-25 18:31 | 26.75040 | 31.41781 | 32906 ft | 555 kts | 139° |
| 2026-04-25 18:31 | 26.70141 | 31.48483 | 32906 ft | 556 kts | 139° |
| 2026-04-25 18:32 | 26.65242 | 31.55179 | 32866 ft | 556 kts | 139° |
| 2026-04-25 18:32 | 26.60341 | 31.61868 | 32873 ft | 556 kts | 139° |
| 2026-04-25 18:33 | 26.55426 | 31.68565 | 32866 ft | 556 kts | 139° |
| 2026-04-25 18:33 | 26.50546 | 31.75204 | 32812 ft | 556 kts | 139° |
| 2026-04-25 18:34 | 26.45638 | 31.81872 | 32821 ft | 555 kts | 139° |
| 2026-04-25 18:34 | 26.40730 | 31.88529 | 32834 ft | 554 kts | 139° |
| 2026-04-25 18:35 | 26.35821 | 31.95176 | 32839 ft | 554 kts | 139° |
| 2026-04-25 18:35 | 26.30919 | 32.01807 | 32845 ft | 554 kts | 139° |
| 2026-04-25 18:36 | 26.26044 | 32.08392 | 32828 ft | 554 kts | 139° |
| 2026-04-25 18:36 | 26.21130 | 32.15019 | 32849 ft | 554 kts | 139° |
| 2026-04-25 18:37 | 26.16212 | 32.21639 | 32866 ft | 554 kts | 139° |
| 2026-04-25 18:37 | 26.11286 | 32.28259 | 32824 ft | 554 kts | 139° |
| 2026-04-25 18:38 | 26.06376 | 32.34858 | 32851 ft | 553 kts | 139° |
| 2026-04-25 18:38 | 26.01456 | 32.41454 | 32861 ft | 553 kts | 139° |
| 2026-04-25 18:39 | 25.96550 | 32.48021 | 32866 ft | 553 kts | 139° |
| 2026-04-25 18:39 | 25.91663 | 32.54554 | 32865 ft | 552 kts | 139° |
| 2026-04-25 18:40 | 25.86741 | 32.61125 | 32880 ft | 553 kts | 139° |
| 2026-04-25 18:40 | 25.81802 | 32.67710 | 32861 ft | 553 kts | 139° |
| 2026-04-25 18:41 | 25.76925 | 32.74205 | 32871 ft | 551 kts | 139° |
| 2026-04-25 18:41 | 25.72282 | 32.81063 | 32853 ft | 560 kts | 132° |
| 2026-04-25 18:42 | 25.69429 | 32.85909 | 32872 ft | 561 kts | 131° |
| 2026-04-25 18:42 | 25.63769 | 32.95560 | 32894 ft | 560 kts | 132° |
| 2026-04-25 18:43 | 25.59469 | 33.02776 | 32866 ft | 561 kts | 133° |
| 2026-04-25 18:43 | 25.55152 | 33.09978 | 32891 ft | 561 kts | 132° |
| 2026-04-25 18:44 | 25.50838 | 33.17166 | 32871 ft | 561 kts | 132° |
| 2026-04-25 18:44 | 25.46547 | 33.24315 | 32886 ft | 560 kts | 132° |
| 2026-04-25 18:45 | 25.42227 | 33.31502 | 32888 ft | 560 kts | 132° |
| 2026-04-25 18:45 | 25.37909 | 33.38672 | 32891 ft | 560 kts | 133° |
| 2026-04-25 18:46 | 25.33588 | 33.45840 | 32882 ft | 559 kts | 133° |
| 2026-04-25 18:46 | 25.29271 | 33.52984 | 32898 ft | 559 kts | 133° |
| 2026-04-25 18:47 | 25.24973 | 33.60078 | 32887 ft | 558 kts | 133° |
| 2026-04-25 18:47 | 25.20650 | 33.67202 | 32888 ft | 558 kts | 133° |
| 2026-04-25 18:48 | 25.16322 | 33.74326 | 32888 ft | 557 kts | 133° |
| 2026-04-25 18:48 | 25.12002 | 33.81433 | 32893 ft | 557 kts | 133° |
| 2026-04-25 18:49 | 25.07679 | 33.88532 | 32890 ft | 557 kts | 133° |
| 2026-04-25 18:49 | 25.03376 | 33.95585 | 32864 ft | 556 kts | 132° |
| 2026-04-25 18:50 | 24.99054 | 34.02661 | 32901 ft | 556 kts | 132° |
| 2026-04-25 18:50 | 24.94718 | 34.09741 | 32893 ft | 556 kts | 133° |
| 2026-04-25 18:51 | 24.91849 | 34.14428 | 32917 ft | 556 kts | 133° |
| 2026-04-25 18:51 | 24.86077 | 34.23841 | 32910 ft | 556 kts | 132° |
| 2026-04-25 18:52 | 24.81743 | 34.30893 | 32896 ft | 556 kts | 132° |
| 2026-04-25 18:52 | 24.77409 | 34.37937 | 32917 ft | 555 kts | 132° |
| 2026-04-25 18:53 | 24.73080 | 34.44960 | 32929 ft | 555 kts | 132° |
| 2026-04-25 18:53 | 24.68748 | 34.51978 | 32919 ft | 554 kts | 132° |
| 2026-04-25 18:54 | 24.62271 | 34.62457 | 32926 ft | 554 kts | 132° |
| 2026-04-25 18:55 | 24.57930 | 34.69463 | 32930 ft | 554 kts | 132° |
| 2026-04-25 18:55 | 24.53585 | 34.76468 | 32932 ft | 554 kts | 132° |
| 2026-04-25 18:56 | 24.49975 | 34.82280 | 32939 ft | 554 kts | 132° |
| 2026-04-25 18:56 | 24.44920 | 34.90407 | 32942 ft | 554 kts | 132° |
| 2026-04-25 18:57 | 24.40563 | 34.97407 | 32941 ft | 555 kts | 132° |
| 2026-04-25 18:57 | 24.36903 | 35.03269 | 32907 ft | 554 kts | 132° |
| 2026-04-25 18:58 | 24.32581 | 35.10189 | 32927 ft | 552 kts | 132° |
| 2026-04-25 18:58 | 24.26073 | 35.20591 | 32932 ft | 551 kts | 132° |
| 2026-04-25 18:59 | 24.17385 | 35.34443 | 32920 ft | 551 kts | 132° |
| 2026-04-25 19:00 | 24.10855 | 35.44828 | 32921 ft | 552 kts | 132° |
| 2026-04-25 19:01 | 24.04321 | 35.55200 | 32908 ft | 552 kts | 132° |
| 2026-04-25 19:01 | 23.99990 | 35.62065 | 32908 ft | 552 kts | 132° |
| 2026-04-25 19:02 | 23.93437 | 35.72429 | 32911 ft | 552 kts | 132° |
| 2026-04-25 19:03 | 23.87620 | 35.81612 | 32905 ft | 552 kts | 131° |
| 2026-04-25 19:03 | 23.82509 | 35.89670 | 32898 ft | 551 kts | 132° |
| 2026-04-25 19:04 | 23.75978 | 35.99951 | 32898 ft | 551 kts | 132° |
| 2026-04-25 19:05 | 23.67222 | 36.13699 | 32899 ft | 550 kts | 132° |
| 2026-04-25 19:06 | 23.62849 | 36.20551 | 32898 ft | 550 kts | 132° |
| 2026-04-25 19:06 | 23.56276 | 36.30832 | 32890 ft | 550 kts | 132° |
| 2026-04-25 19:07 | 23.49733 | 36.41047 | 32897 ft | 550 kts | 132° |
| 2026-04-25 19:08 | 23.45338 | 36.47893 | 33159 ft | 552 kts | 131° |
| 2026-04-25 19:08 | 23.43144 | 36.51311 | 33542 ft | 549 kts | 131° |
| 2026-04-25 19:09 | 23.36625 | 36.61457 | 34549 ft | 542 kts | 131° |
| 2026-04-25 19:09 | 23.35191 | 36.63683 | 34720 ft | 542 kts | 131° |
| 2026-04-25 19:09 | 23.30122 | 36.71537 | 34870 ft | 546 kts | 131° |
| 2026-04-25 19:10 | 23.27941 | 36.74917 | 34882 ft | 545 kts | 131° |
| 2026-04-25 19:10 | 23.23604 | 36.81640 | 34886 ft | 540 kts | 131° |
| 2026-04-25 19:11 | 23.19286 | 36.88317 | 34890 ft | 539 kts | 131° |
| 2026-04-25 19:11 | 23.14976 | 36.94970 | 34886 ft | 538 kts | 131° |
| 2026-04-25 19:12 | 23.10663 | 37.01620 | 34881 ft | 539 kts | 131° |
| 2026-04-25 19:12 | 23.06341 | 37.08279 | 34889 ft | 540 kts | 131° |
| 2026-04-25 19:13 | 23.02004 | 37.14952 | 34872 ft | 541 kts | 131° |
| 2026-04-25 19:13 | 22.97630 | 37.21625 | 34885 ft | 542 kts | 132° |
| 2026-04-25 19:14 | 22.93265 | 37.28250 | 34881 ft | 543 kts | 131° |
| 2026-04-25 19:14 | 22.88867 | 37.34928 | 34888 ft | 544 kts | 131° |
| 2026-04-25 19:15 | 22.84465 | 37.41611 | 34885 ft | 544 kts | 131° |
| 2026-04-25 19:15 | 22.80065 | 37.48284 | 34881 ft | 544 kts | 131° |
| 2026-04-25 19:16 | 22.75690 | 37.54907 | 34886 ft | 544 kts | 131° |
| 2026-04-25 19:16 | 22.71295 | 37.61590 | 34884 ft | 544 kts | 131° |
| 2026-04-25 19:17 | 22.66916 | 37.68272 | 34883 ft | 544 kts | 131° |
| 2026-04-25 19:17 | 22.62541 | 37.74950 | 34878 ft | 543 kts | 131° |
| 2026-04-25 19:18 | 22.58156 | 37.81634 | 34886 ft | 543 kts | 131° |
| 2026-04-25 19:18 | 22.53773 | 37.88305 | 34886 ft | 543 kts | 131° |
| 2026-04-25 19:19 | 22.49416 | 37.94927 | 34888 ft | 543 kts | 131° |
| 2026-04-25 19:19 | 22.45035 | 38.01578 | 34877 ft | 543 kts | 131° |
| 2026-04-25 19:20 | 22.40642 | 38.08241 | 34883 ft | 542 kts | 131° |
| 2026-04-25 19:20 | 22.36286 | 38.14837 | 34877 ft | 542 kts | 131° |
| 2026-04-25 19:21 | 22.31901 | 38.21471 | 34866 ft | 542 kts | 131° |
| 2026-04-25 19:21 | 22.25330 | 38.31385 | 34878 ft | 541 kts | 131° |
| 2026-04-25 19:22 | 22.20935 | 38.37994 | 34874 ft | 541 kts | 131° |
| 2026-04-25 19:23 | 22.14380 | 38.47841 | 34863 ft | 540 kts | 131° |
| 2026-04-25 19:23 | 22.07796 | 38.57720 | 34873 ft | 540 kts | 131° |
| 2026-04-25 19:24 | 22.03405 | 38.64297 | 34871 ft | 540 kts | 131° |
| 2026-04-25 19:25 | 21.94619 | 38.77433 | 34861 ft | 540 kts | 131° |
| 2026-04-25 19:25 | 21.90218 | 38.84002 | 34874 ft | 540 kts | 131° |
| 2026-04-25 19:26 | 21.85841 | 38.90526 | 34870 ft | 540 kts | 131° |
| 2026-04-25 19:26 | 21.81441 | 38.97079 | 34857 ft | 540 kts | 131° |
| 2026-04-25 19:27 | 21.77783 | 39.02521 | 34886 ft | 539 kts | 131° |
| 2026-04-25 19:27 | 21.72095 | 39.09466 | 34880 ft | 515 kts | 154° |
| 2026-04-25 19:28 | 21.68938 | 39.11147 | 34896 ft | 501 kts | 168° |
| 2026-04-25 19:28 | 21.65596 | 39.12091 | 34893 ft | 493 kts | 179° |
| 2026-04-25 19:28 | 21.62219 | 39.12261 | 34887 ft | 481 kts | 190° |
| 2026-04-25 19:28 | 21.58857 | 39.12085 | 34893 ft | 485 kts | 190° |
| 2026-04-25 19:29 | 21.52096 | 39.11818 | 34886 ft | 491 kts | 189° |
| 2026-04-25 19:29 | 21.45323 | 39.11638 | 34845 ft | 482 kts | 188° |
| 2026-04-25 19:30 | 21.38631 | 39.11480 | 34865 ft | 481 kts | 188° |
| 2026-04-25 19:30 | 21.31927 | 39.11314 | 34868 ft | 482 kts | 188° |
| 2026-04-25 19:31 | 21.25203 | 39.11146 | 34872 ft | 483 kts | 188° |
| 2026-04-25 19:31 | 21.18516 | 39.10979 | 34858 ft | 484 kts | 188° |
| 2026-04-25 19:32 | 21.11778 | 39.10811 | 34878 ft | 485 kts | 188° |
| 2026-04-25 19:32 | 21.07259 | 39.10699 | 34878 ft | 485 kts | 188° |
| 2026-04-25 19:33 | 20.98259 | 39.10477 | 34878 ft | 486 kts | 188° |
| 2026-04-25 19:33 | 20.91494 | 39.10309 | 34868 ft | 486 kts | 188° |
| 2026-04-25 19:34 | 20.84709 | 39.10141 | 34879 ft | 487 kts | 188° |
| 2026-04-25 19:34 | 20.77982 | 39.09975 | 34873 ft | 487 kts | 188° |
| 2026-04-25 19:35 | 20.71205 | 39.09808 | 34873 ft | 487 kts | 188° |
| 2026-04-25 19:35 | 20.64429 | 39.09637 | 34865 ft | 487 kts | 187° |
| 2026-04-25 19:36 | 20.57647 | 39.09463 | 34871 ft | 487 kts | 187° |
| 2026-04-25 19:36 | 20.50863 | 39.09290 | 34871 ft | 487 kts | 187° |
| 2026-04-25 19:37 | 20.44120 | 39.09118 | 34873 ft | 487 kts | 187° |
| 2026-04-25 19:37 | 20.37329 | 39.08945 | 34869 ft | 488 kts | 187° |
| 2026-04-25 19:38 | 20.30542 | 39.08773 | 34874 ft | 488 kts | 187° |
| 2026-04-25 19:38 | 20.23738 | 39.08600 | 34870 ft | 488 kts | 187° |
| 2026-04-25 19:39 | 20.16946 | 39.08428 | 34863 ft | 488 kts | 187° |
| 2026-04-25 19:39 | 20.10188 | 39.08256 | 34867 ft | 489 kts | 187° |
| 2026-04-25 19:40 | 20.03386 | 39.08084 | 34865 ft | 489 kts | 187° |
| 2026-04-25 19:40 | 19.96552 | 39.07911 | 34868 ft | 490 kts | 187° |
| 2026-04-25 19:41 | 19.89734 | 39.07739 | 34858 ft | 490 kts | 187° |
| 2026-04-25 19:41 | 19.85210 | 39.07624 | 34860 ft | 491 kts | 187° |
| 2026-04-25 19:42 | 19.76091 | 39.07394 | 34866 ft | 491 kts | 187° |
| 2026-04-25 19:42 | 19.69252 | 39.07222 | 34863 ft | 492 kts | 187° |
| 2026-04-25 19:43 | 19.62448 | 39.07051 | 34872 ft | 492 kts | 187° |
| 2026-04-25 19:43 | 19.55591 | 39.06879 | 34858 ft | 492 kts | 187° |
| 2026-04-25 19:44 | 19.48751 | 39.06707 | 34856 ft | 491 kts | 187° |
| 2026-04-25 19:44 | 19.43059 | 39.06564 | 34870 ft | 491 kts | 187° |
| 2026-04-25 19:45 | 19.36225 | 39.06392 | 34855 ft | 491 kts | 187° |
| 2026-04-25 19:45 | 19.29383 | 39.06220 | 34855 ft | 491 kts | 187° |
| 2026-04-25 19:46 | 19.22544 | 39.06049 | 34859 ft | 492 kts | 187° |
| 2026-04-25 19:46 | 19.15748 | 39.05879 | 34859 ft | 492 kts | 187° |
| 2026-04-25 19:47 | 19.08892 | 39.05657 | 34852 ft | 491 kts | 188° |
| 2026-04-25 19:47 | 19.02070 | 39.05263 | 34860 ft | 491 kts | 188° |
| 2026-04-25 19:48 | 18.95240 | 39.04846 | 34854 ft | 491 kts | 188° |
| 2026-04-25 19:48 | 18.88401 | 39.04453 | 34857 ft | 492 kts | 188° |
| 2026-04-25 19:49 | 18.82708 | 39.04137 | 34842 ft | 492 kts | 188° |
| 2026-04-25 19:49 | 18.74760 | 39.03699 | 34849 ft | 492 kts | 188° |
| 2026-04-25 19:50 | 18.64465 | 39.03130 | 34846 ft | 493 kts | 188° |
| 2026-04-25 19:51 | 18.57602 | 39.02750 | 34841 ft | 493 kts | 188° |
| 2026-04-25 19:51 | 18.50779 | 39.02373 | 34844 ft | 494 kts | 188° |
| 2026-04-25 19:52 | 18.43903 | 39.01994 | 34843 ft | 494 kts | 188° |
| 2026-04-25 19:52 | 18.37039 | 39.01615 | 34845 ft | 495 kts | 188° |
| 2026-04-25 19:53 | 18.30155 | 39.01235 | 34834 ft | 495 kts | 187° |
| 2026-04-25 19:53 | 18.23269 | 39.00856 | 34841 ft | 495 kts | 187° |
| 2026-04-25 19:54 | 18.16427 | 39.00480 | 34844 ft | 495 kts | 187° |
| 2026-04-25 19:54 | 18.09532 | 39.00195 | 34840 ft | 496 kts | 186° |
| 2026-04-25 19:55 | 18.02632 | 38.99968 | 34835 ft | 496 kts | 186° |
| 2026-04-25 19:55 | 17.95738 | 38.99731 | 34840 ft | 495 kts | 186° |
| 2026-04-25 19:56 | 17.88831 | 38.99481 | 34841 ft | 495 kts | 186° |
| 2026-04-25 19:56 | 17.81933 | 38.99228 | 34836 ft | 495 kts | 186° |
| 2026-04-25 19:57 | 17.75044 | 38.98976 | 34836 ft | 495 kts | 186° |
| 2026-04-25 19:57 | 17.68159 | 38.98725 | 34839 ft | 495 kts | 186° |
| 2026-04-25 19:58 | 17.61303 | 38.98476 | 34839 ft | 495 kts | 186° |
| 2026-04-25 19:58 | 17.54418 | 38.98226 | 34839 ft | 495 kts | 186° |
| 2026-04-25 19:59 | 17.47531 | 38.97975 | 34841 ft | 495 kts | 186° |
| 2026-04-25 19:59 | 17.40634 | 38.97725 | 34842 ft | 495 kts | 186° |
| 2026-04-25 20:00 | 17.33739 | 38.97475 | 34841 ft | 496 kts | 186° |
| 2026-04-25 20:00 | 17.26881 | 38.97226 | 34848 ft | 496 kts | 186° |
| 2026-04-25 20:01 | 17.16521 | 38.96850 | 34846 ft | 496 kts | 185° |
| 2026-04-25 20:01 | 17.09608 | 38.96600 | 34844 ft | 497 kts | 185° |
| 2026-04-25 20:02 | 17.02698 | 38.96350 | 34849 ft | 497 kts | 185° |
| 2026-04-25 20:02 | 16.95808 | 38.96101 | 34846 ft | 497 kts | 185° |
| 2026-04-25 20:03 | 16.88895 | 38.95851 | 34852 ft | 497 kts | 185° |
| 2026-04-25 20:03 | 16.81975 | 38.95601 | 34854 ft | 497 kts | 185° |
| 2026-04-25 20:04 | 16.75064 | 38.95352 | 34855 ft | 497 kts | 185° |
| 2026-04-25 20:04 | 16.68156 | 38.95103 | 34858 ft | 497 kts | 185° |
| 2026-04-25 20:05 | 16.61268 | 38.94854 | 34866 ft | 497 kts | 185° |
| 2026-04-25 20:05 | 16.54356 | 38.94606 | 34866 ft | 497 kts | 185° |
| 2026-04-25 20:06 | 16.47429 | 38.94356 | 34870 ft | 497 kts | 185° |
| 2026-04-25 20:06 | 16.40506 | 38.94107 | 34875 ft | 497 kts | 185° |
| 2026-04-25 20:07 | 16.33625 | 38.93860 | 34878 ft | 498 kts | 185° |
| 2026-04-25 20:07 | 16.26700 | 38.93611 | 34902 ft | 498 kts | 185° |
| 2026-04-25 20:08 | 16.19770 | 38.93363 | 34898 ft | 498 kts | 185° |
| 2026-04-25 20:08 | 16.12837 | 38.93114 | 34908 ft | 499 kts | 185° |
| 2026-04-25 20:09 | 16.05899 | 38.92865 | 34923 ft | 499 kts | 185° |
| 2026-04-25 20:09 | 15.98945 | 38.92617 | 34917 ft | 499 kts | 185° |
| 2026-04-25 20:10 | 15.92037 | 38.92369 | 34928 ft | 499 kts | 185° |
| 2026-04-25 20:10 | 15.85090 | 38.92121 | 34946 ft | 499 kts | 184° |
| 2026-04-25 20:11 | 15.78148 | 38.91873 | 34942 ft | 500 kts | 184° |
| 2026-04-25 20:11 | 15.71197 | 38.91625 | 34964 ft | 500 kts | 184° |
| 2026-04-25 20:12 | 15.64236 | 38.91377 | 34986 ft | 499 kts | 184° |
| 2026-04-25 20:12 | 15.59629 | 38.91213 | 34976 ft | 499 kts | 184° |
| 2026-04-25 20:13 | 15.50339 | 38.90880 | 34984 ft | 499 kts | 184° |
| 2026-04-25 20:13 | 15.43435 | 38.90635 | 34992 ft | 499 kts | 184° |
| 2026-04-25 20:14 | 15.36495 | 38.90388 | 35001 ft | 499 kts | 184° |
| 2026-04-25 20:14 | 15.29555 | 38.90141 | 35017 ft | 499 kts | 184° |
| 2026-04-25 20:15 | 15.22609 | 38.90010 | 35021 ft | 499 kts | 182° |
| 2026-04-25 20:15 | 15.15647 | 38.90044 | 35020 ft | 500 kts | 182° |
| 2026-04-25 20:16 | 15.08693 | 38.90072 | 35024 ft | 500 kts | 182° |
| 2026-04-25 20:16 | 15.01726 | 38.90070 | 35021 ft | 500 kts | 182° |
| 2026-04-25 20:17 | 14.94806 | 38.90059 | 35021 ft | 501 kts | 182° |
| 2026-04-25 20:17 | 14.87814 | 38.90048 | 35012 ft | 502 kts | 182° |
| 2026-04-25 20:18 | 14.80825 | 38.90039 | 35004 ft | 502 kts | 181° |
| 2026-04-25 20:18 | 14.73839 | 38.90030 | 34998 ft | 502 kts | 181° |
| 2026-04-25 20:19 | 14.66890 | 38.90022 | 34996 ft | 502 kts | 181° |
| 2026-04-25 20:19 | 14.59893 | 38.90012 | 34998 ft | 502 kts | 181° |
| 2026-04-25 20:20 | 14.52913 | 38.90240 | 34986 ft | 503 kts | 171° |
| 2026-04-25 20:20 | 14.49529 | 38.91160 | 35000 ft | 504 kts | 160° |
| 2026-04-25 20:20 | 14.46325 | 38.92657 | 35003 ft | 505 kts | 150° |
| 2026-04-25 20:21 | 14.40595 | 38.96845 | 35016 ft | 505 kts | 144° |
| 2026-04-25 20:21 | 14.34944 | 39.01196 | 35010 ft | 507 kts | 144° |
| 2026-04-25 20:22 | 14.31181 | 39.04054 | 35025 ft | 508 kts | 144° |
| 2026-04-25 20:22 | 14.23556 | 39.09766 | 35030 ft | 508 kts | 144° |
| 2026-04-25 20:23 | 14.17823 | 39.14037 | 35039 ft | 509 kts | 144° |
| 2026-04-25 20:23 | 14.12080 | 39.18314 | 35043 ft | 509 kts | 144° |
| 2026-04-25 20:24 | 14.06336 | 39.22592 | 35052 ft | 509 kts | 144° |
| 2026-04-25 20:24 | 14.00599 | 39.26863 | 35055 ft | 508 kts | 144° |
| 2026-04-25 20:25 | 13.94861 | 39.31133 | 35068 ft | 508 kts | 144° |
| 2026-04-25 20:25 | 13.89132 | 39.35393 | 35065 ft | 508 kts | 144° |
| 2026-04-25 20:26 | 13.83395 | 39.39657 | 35061 ft | 508 kts | 144° |
| 2026-04-25 20:26 | 13.77702 | 39.43885 | 35072 ft | 508 kts | 144° |
| 2026-04-25 20:27 | 13.71973 | 39.48137 | 35076 ft | 508 kts | 144° |
| 2026-04-25 20:27 | 13.66238 | 39.52391 | 35070 ft | 508 kts | 144° |
| 2026-04-25 20:28 | 13.60505 | 39.56641 | 35073 ft | 508 kts | 144° |
| 2026-04-25 20:28 | 13.54768 | 39.60891 | 35065 ft | 509 kts | 144° |
| 2026-04-25 20:29 | 13.49025 | 39.65144 | 35058 ft | 509 kts | 144° |
| 2026-04-25 20:29 | 13.43270 | 39.69402 | 35031 ft | 509 kts | 144° |
| 2026-04-25 20:30 | 13.37519 | 39.73655 | 35036 ft | 509 kts | 144° |
| 2026-04-25 20:30 | 13.32742 | 39.77187 | 35010 ft | 510 kts | 144° |
| 2026-04-25 20:31 | 13.26979 | 39.81443 | 35013 ft | 510 kts | 144° |
| 2026-04-25 20:31 | 13.21218 | 39.85696 | 34981 ft | 510 kts | 144° |
| 2026-04-25 20:32 | 13.15460 | 39.89945 | 34979 ft | 510 kts | 144° |
| 2026-04-25 20:32 | 13.09696 | 39.94196 | 34947 ft | 510 kts | 144° |
| 2026-04-25 20:33 | 13.03976 | 39.98411 | 34936 ft | 509 kts | 144° |
| 2026-04-25 20:33 | 12.99155 | 40.01962 | 34953 ft | 508 kts | 144° |
| 2026-04-25 20:34 | 12.92468 | 40.06884 | 34923 ft | 508 kts | 144° |
| 2026-04-25 20:34 | 12.86763 | 40.11082 | 34920 ft | 508 kts | 144° |
| 2026-04-25 20:35 | 12.81022 | 40.15303 | 34897 ft | 508 kts | 144° |
| 2026-04-25 20:35 | 12.75284 | 40.19520 | 34899 ft | 507 kts | 144° |
| 2026-04-25 20:36 | 12.69549 | 40.23732 | 34879 ft | 507 kts | 144° |
| 2026-04-25 20:36 | 12.63809 | 40.27946 | 34878 ft | 507 kts | 144° |
| 2026-04-25 20:37 | 12.58069 | 40.32157 | 34875 ft | 508 kts | 144° |
| 2026-04-25 20:37 | 12.52316 | 40.36376 | 34876 ft | 508 kts | 144° |
| 2026-04-25 20:38 | 12.46551 | 40.40579 | 34883 ft | 509 kts | 146° |
| 2026-04-25 20:38 | 12.40372 | 40.44113 | 34888 ft | 509 kts | 153° |
| 2026-04-25 20:39 | 12.34051 | 40.47294 | 34892 ft | 510 kts | 154° |
| 2026-04-25 20:39 | 12.28716 | 40.49989 | 34881 ft | 510 kts | 153° |
| 2026-04-25 20:40 | 12.21325 | 40.53766 | 34898 ft | 511 kts | 153° |
| 2026-04-25 20:40 | 12.14967 | 40.57033 | 34891 ft | 511 kts | 153° |
| 2026-04-25 20:41 | 12.08617 | 40.60296 | 34900 ft | 511 kts | 153° |
| 2026-04-25 20:41 | 12.02259 | 40.63558 | 34899 ft | 511 kts | 153° |
| 2026-04-25 20:42 | 11.95950 | 40.66792 | 34898 ft | 510 kts | 153° |
| 2026-04-25 20:42 | 11.89602 | 40.70044 | 34895 ft | 510 kts | 153° |
| 2026-04-25 20:43 | 11.83251 | 40.73296 | 34899 ft | 510 kts | 153° |
| 2026-04-25 20:43 | 11.76916 | 40.76539 | 34895 ft | 510 kts | 153° |
| 2026-04-25 20:44 | 11.70568 | 40.79785 | 34900 ft | 510 kts | 153° |
| 2026-04-25 20:44 | 11.64226 | 40.83028 | 34895 ft | 510 kts | 153° |
| 2026-04-25 20:45 | 11.57874 | 40.86274 | 34899 ft | 510 kts | 153° |
| 2026-04-25 20:45 | 11.51528 | 40.89516 | 34899 ft | 510 kts | 153° |
| 2026-04-25 20:46 | 11.45176 | 40.92758 | 34891 ft | 511 kts | 153° |
| 2026-04-25 20:46 | 11.38852 | 40.95985 | 34894 ft | 511 kts | 153° |
| 2026-04-25 20:47 | 11.32489 | 40.99230 | 34899 ft | 511 kts | 153° |
| 2026-04-25 20:47 | 11.26117 | 41.02478 | 34898 ft | 511 kts | 153° |
| 2026-04-25 20:48 | 11.19744 | 41.05725 | 34903 ft | 511 kts | 153° |
| 2026-04-25 20:48 | 11.13372 | 41.08970 | 34898 ft | 511 kts | 153° |
| 2026-04-25 20:49 | 11.07009 | 41.12208 | 34904 ft | 511 kts | 153° |
| 2026-04-25 20:49 | 11.00683 | 41.15426 | 34905 ft | 511 kts | 153° |
| 2026-04-25 20:50 | 10.94329 | 41.18657 | 34909 ft | 511 kts | 153° |
| 2026-04-25 20:50 | 10.87962 | 41.21893 | 34911 ft | 511 kts | 153° |
| 2026-04-25 20:51 | 10.81601 | 41.25124 | 34912 ft | 511 kts | 153° |
| 2026-04-25 20:51 | 10.75241 | 41.28354 | 34918 ft | 511 kts | 153° |
| 2026-04-25 20:52 | 10.69950 | 41.31039 | 34919 ft | 510 kts | 153° |
| 2026-04-25 20:52 | 10.62524 | 41.34806 | 34920 ft | 510 kts | 153° |
| 2026-04-25 20:53 | 10.56216 | 41.38004 | 34922 ft | 509 kts | 153° |
| 2026-04-25 20:53 | 10.49867 | 41.41222 | 34923 ft | 509 kts | 153° |
| 2026-04-25 20:54 | 10.43528 | 41.44433 | 34924 ft | 509 kts | 153° |
| 2026-04-25 20:54 | 10.37192 | 41.47641 | 34923 ft | 509 kts | 153° |
| 2026-04-25 20:55 | 10.30881 | 41.50835 | 34923 ft | 508 kts | 153° |
| 2026-04-25 20:55 | 10.24541 | 41.54042 | 34924 ft | 508 kts | 153° |
| 2026-04-25 20:56 | 10.18237 | 41.57230 | 34923 ft | 508 kts | 153° |
| 2026-04-25 20:56 | 10.11903 | 41.60431 | 34924 ft | 508 kts | 153° |
| 2026-04-25 20:57 | 10.05569 | 41.63632 | 34923 ft | 508 kts | 153° |
| 2026-04-25 20:57 | 9.99234 | 41.66830 | 34923 ft | 508 kts | 153° |
| 2026-04-25 20:58 | 9.92894 | 41.70031 | 34940 ft | 508 kts | 153° |
| 2026-04-25 20:58 | 9.86560 | 41.73227 | 34939 ft | 508 kts | 153° |
| 2026-04-25 20:59 | 9.80225 | 41.76422 | 34956 ft | 508 kts | 153° |
| 2026-04-25 20:59 | 9.73895 | 41.79614 | 34962 ft | 507 kts | 153° |
| 2026-04-25 21:00 | 9.69704 | 41.81727 | 34988 ft | 507 kts | 153° |
| 2026-04-25 21:01 | 9.58058 | 41.87412 | 35002 ft | 507 kts | 155° |
| 2026-04-25 21:01 | 9.51609 | 41.90316 | 35029 ft | 506 kts | 155° |
| 2026-04-25 21:02 | 9.45172 | 41.93227 | 35048 ft | 506 kts | 155° |
| 2026-04-25 21:02 | 9.38763 | 41.96158 | 35053 ft | 505 kts | 155° |
| 2026-04-25 21:03 | 9.32403 | 41.99077 | 35063 ft | 504 kts | 155° |
| 2026-04-25 21:03 | 9.26004 | 42.02014 | 35065 ft | 504 kts | 155° |
| 2026-04-25 21:04 | 9.19616 | 42.04941 | 35059 ft | 503 kts | 155° |
| 2026-04-25 21:04 | 9.13231 | 42.07866 | 35058 ft | 503 kts | 155° |
| 2026-04-25 21:05 | 9.06860 | 42.10783 | 35050 ft | 502 kts | 155° |
| 2026-04-25 21:05 | 9.00493 | 42.13697 | 35046 ft | 502 kts | 155° |
| 2026-04-25 21:06 | 8.94155 | 42.16595 | 35039 ft | 502 kts | 155° |
| 2026-04-25 21:06 | 8.87790 | 42.19507 | 35035 ft | 502 kts | 155° |
| 2026-04-25 21:07 | 8.81412 | 42.22423 | 35027 ft | 503 kts | 155° |
| 2026-04-25 21:07 | 8.75030 | 42.25339 | 35020 ft | 504 kts | 155° |
| 2026-04-25 21:08 | 8.68639 | 42.28259 | 35023 ft | 504 kts | 155° |
| 2026-04-25 21:08 | 8.62237 | 42.31182 | 35012 ft | 505 kts | 155° |
| 2026-04-25 21:09 | 8.52622 | 42.35572 | 35009 ft | 506 kts | 155° |
| 2026-04-25 21:09 | 8.46210 | 42.38498 | 35002 ft | 506 kts | 155° |
| 2026-04-25 21:10 | 8.39790 | 42.41428 | 35005 ft | 506 kts | 155° |
| 2026-04-25 21:10 | 8.33415 | 42.44347 | 34994 ft | 506 kts | 154° |
| 2026-04-25 21:11 | 8.26994 | 42.47288 | 34999 ft | 506 kts | 154° |
| 2026-04-25 21:11 | 8.20573 | 42.50226 | 34997 ft | 506 kts | 154° |
| 2026-04-25 21:12 | 8.14148 | 42.53164 | 34990 ft | 506 kts | 154° |
| 2026-04-25 21:12 | 8.09893 | 42.55111 | 34991 ft | 506 kts | 154° |
| 2026-04-25 21:13 | 8.01344 | 42.59020 | 34977 ft | 507 kts | 154° |
| 2026-04-25 21:13 | 7.94925 | 42.61955 | 34978 ft | 507 kts | 154° |
| 2026-04-25 21:14 | 7.88501 | 42.64891 | 34972 ft | 507 kts | 154° |
| 2026-04-25 21:14 | 7.82074 | 42.67828 | 34974 ft | 507 kts | 154° |
| 2026-04-25 21:15 | 7.75642 | 42.70765 | 34965 ft | 508 kts | 154° |
| 2026-04-25 21:15 | 7.69191 | 42.73710 | 34966 ft | 508 kts | 154° |
| 2026-04-25 21:16 | 7.62787 | 42.76634 | 34963 ft | 508 kts | 154° |
| 2026-04-25 21:16 | 7.56351 | 42.79570 | 34964 ft | 508 kts | 154° |
| 2026-04-25 21:17 | 7.49911 | 42.82507 | 34971 ft | 508 kts | 154° |
| 2026-04-25 21:17 | 7.43458 | 42.85450 | 34963 ft | 508 kts | 154° |
| 2026-04-25 21:18 | 7.37024 | 42.88382 | 34962 ft | 507 kts | 154° |
| 2026-04-25 21:18 | 7.30587 | 42.91316 | 34960 ft | 507 kts | 154° |
| 2026-04-25 21:19 | 7.24205 | 42.94223 | 34964 ft | 507 kts | 154° |
| 2026-04-25 21:19 | 7.17776 | 42.97151 | 34958 ft | 506 kts | 154° |
| 2026-04-25 21:20 | 7.13476 | 42.99109 | 34961 ft | 506 kts | 154° |
| 2026-04-25 21:20 | 7.06007 | 43.02509 | 34955 ft | 506 kts | 154° |
| 2026-04-25 21:21 | 6.99575 | 43.05436 | 34946 ft | 507 kts | 154° |
| 2026-04-25 21:21 | 6.93148 | 43.08361 | 34944 ft | 507 kts | 154° |
| 2026-04-25 21:22 | 6.86716 | 43.11296 | 34938 ft | 507 kts | 154° |
| 2026-04-25 21:22 | 6.80335 | 43.14208 | 34938 ft | 507 kts | 154° |
| 2026-04-25 21:23 | 6.73907 | 43.17140 | 34931 ft | 507 kts | 154° |
| 2026-04-25 21:23 | 6.67471 | 43.20074 | 34931 ft | 507 kts | 154° |
| 2026-04-25 21:24 | 6.61037 | 43.23007 | 34925 ft | 507 kts | 154° |
| 2026-04-25 21:24 | 6.54608 | 43.25937 | 34922 ft | 507 kts | 154° |
| 2026-04-25 21:25 | 6.48208 | 43.28852 | 34917 ft | 507 kts | 154° |
| 2026-04-25 21:25 | 6.41774 | 43.31782 | 34915 ft | 507 kts | 154° |
| 2026-04-25 21:26 | 6.35347 | 43.34708 | 34915 ft | 507 kts | 154° |
| 2026-04-25 21:26 | 6.28918 | 43.37634 | 34907 ft | 507 kts | 154° |
| 2026-04-25 21:27 | 6.22480 | 43.40564 | 34907 ft | 507 kts | 154° |
| 2026-04-25 21:27 | 6.16050 | 43.43489 | 34902 ft | 507 kts | 154° |
| 2026-04-25 21:28 | 6.09619 | 43.46414 | 34901 ft | 507 kts | 154° |
| 2026-04-25 21:28 | 6.03188 | 43.49338 | 34901 ft | 507 kts | 154° |
| 2026-04-25 21:29 | 5.96799 | 43.52242 | 34901 ft | 507 kts | 154° |
| 2026-04-25 21:29 | 5.90360 | 43.55169 | 34905 ft | 507 kts | 154° |
| 2026-04-25 21:30 | 5.83919 | 43.58095 | 34906 ft | 507 kts | 154° |
| 2026-04-25 21:30 | 5.78569 | 43.60526 | 34907 ft | 508 kts | 154° |
| 2026-04-25 21:31 | 5.71075 | 43.63930 | 34912 ft | 508 kts | 154° |
| 2026-04-25 21:31 | 5.64636 | 43.66855 | 34907 ft | 508 kts | 154° |
| 2026-04-25 21:32 | 5.58191 | 43.69790 | 34909 ft | 508 kts | 154° |
| 2026-04-25 21:32 | 5.51755 | 43.72722 | 34906 ft | 508 kts | 154° |
| 2026-04-25 21:33 | 5.45313 | 43.75655 | 34910 ft | 508 kts | 154° |
| 2026-04-25 21:33 | 5.38914 | 43.78569 | 34910 ft | 508 kts | 154° |
| 2026-04-25 21:34 | 5.32476 | 43.81499 | 34906 ft | 508 kts | 154° |
| 2026-04-25 21:34 | 5.26042 | 43.84427 | 34909 ft | 508 kts | 154° |
| 2026-04-25 21:35 | 5.19607 | 43.87354 | 34908 ft | 508 kts | 154° |
| 2026-04-25 21:35 | 5.13166 | 43.90284 | 34906 ft | 508 kts | 154° |
| 2026-04-25 21:36 | 5.06724 | 43.93214 | 34906 ft | 508 kts | 154° |
| 2026-04-25 21:36 | 5.00288 | 43.96140 | 34910 ft | 508 kts | 154° |
| 2026-04-25 21:37 | 4.94931 | 43.98576 | 34908 ft | 508 kts | 154° |
| 2026-04-25 21:37 | 4.87437 | 44.01962 | 34911 ft | 508 kts | 155° |
| 2026-04-25 21:38 | 4.80963 | 44.04840 | 34925 ft | 509 kts | 155° |
| 2026-04-25 21:38 | 4.74475 | 44.07721 | 34916 ft | 509 kts | 155° |
| 2026-04-25 21:39 | 4.68043 | 44.10583 | 34923 ft | 509 kts | 155° |
| 2026-04-25 21:39 | 4.61560 | 44.13471 | 34921 ft | 509 kts | 155° |
| 2026-04-25 21:40 | 4.55082 | 44.16357 | 34930 ft | 510 kts | 155° |
| 2026-04-25 21:40 | 4.48594 | 44.19247 | 34931 ft | 510 kts | 155° |
| 2026-04-25 21:41 | 4.42106 | 44.22136 | 34930 ft | 510 kts | 155° |
| 2026-04-25 21:41 | 4.35620 | 44.25023 | 34924 ft | 509 kts | 155° |
| 2026-04-25 21:42 | 4.29163 | 44.27897 | 34927 ft | 509 kts | 155° |
| 2026-04-25 21:42 | 4.22691 | 44.30777 | 34926 ft | 509 kts | 155° |
| 2026-04-25 21:43 | 4.16207 | 44.33662 | 34927 ft | 509 kts | 155° |
| 2026-04-25 21:43 | 4.09782 | 44.36520 | 34926 ft | 509 kts | 155° |
| 2026-04-25 21:44 | 4.03309 | 44.39399 | 34922 ft | 508 kts | 155° |
| 2026-04-25 21:45 | 3.93613 | 44.43710 | 34923 ft | 508 kts | 155° |
| 2026-04-25 21:45 | 3.87143 | 44.46586 | 34922 ft | 508 kts | 155° |
| 2026-04-25 21:46 | 3.80671 | 44.49463 | 34915 ft | 508 kts | 155° |
| 2026-04-25 21:46 | 3.74213 | 44.52333 | 34918 ft | 508 kts | 155° |
| 2026-04-25 21:47 | 3.67738 | 44.55210 | 34915 ft | 509 kts | 155° |
| 2026-04-25 21:47 | 3.61269 | 44.58084 | 34920 ft | 509 kts | 155° |
| 2026-04-25 21:48 | 3.54798 | 44.60958 | 34914 ft | 509 kts | 155° |
| 2026-04-25 21:48 | 3.48369 | 44.63814 | 34913 ft | 509 kts | 155° |
| 2026-04-25 21:49 | 3.41895 | 44.66689 | 34918 ft | 509 kts | 155° |
| 2026-04-25 21:49 | 3.35418 | 44.69564 | 34910 ft | 509 kts | 155° |
| 2026-04-25 21:50 | 3.28939 | 44.72440 | 34910 ft | 509 kts | 155° |
| 2026-04-25 21:50 | 3.22461 | 44.75316 | 34911 ft | 509 kts | 155° |
| 2026-04-25 21:51 | 3.15974 | 44.78195 | 34908 ft | 509 kts | 155° |
| 2026-04-25 21:51 | 3.09491 | 44.81071 | 34904 ft | 510 kts | 155° |
| 2026-04-25 21:52 | 3.02999 | 44.83952 | 34904 ft | 510 kts | 155° |
| 2026-04-25 21:52 | 2.96514 | 44.86829 | 34897 ft | 510 kts | 155° |
| 2026-04-25 21:53 | 2.90065 | 44.89690 | 34902 ft | 510 kts | 155° |
| 2026-04-25 21:53 | 2.83578 | 44.92566 | 34902 ft | 510 kts | 155° |
| 2026-04-25 21:54 | 2.77091 | 44.95443 | 34900 ft | 510 kts | 155° |
| 2026-04-25 21:54 | 2.70596 | 44.98323 | 34902 ft | 510 kts | 155° |
| 2026-04-25 21:55 | 2.64107 | 45.01200 | 34895 ft | 510 kts | 155° |
| 2026-04-25 21:55 | 2.57618 | 45.04077 | 34897 ft | 510 kts | 155° |
| 2026-04-25 21:56 | 2.51122 | 45.06956 | 34899 ft | 510 kts | 155° |
| 2026-04-25 21:56 | 2.44633 | 45.09832 | 34898 ft | 510 kts | 155° |
| 2026-04-25 21:57 | 2.38142 | 45.12709 | 34898 ft | 510 kts | 155° |
| 2026-04-25 21:57 | 2.31687 | 45.15570 | 34902 ft | 511 kts | 155° |
| 2026-04-25 21:58 | 2.25180 | 45.18453 | 34898 ft | 512 kts | 155° |
| 2026-04-25 21:58 | 2.18668 | 45.21338 | 34893 ft | 512 kts | 155° |
| 2026-04-25 21:59 | 2.12143 | 45.24229 | 34894 ft | 513 kts | 155° |
| 2026-04-25 21:59 | 2.05619 | 45.27120 | 34892 ft | 513 kts | 155° |
| 2026-04-25 22:00 | 1.95805 | 45.31432 | 34890 ft | 513 kts | 155° |
| 2026-04-25 22:00 | 1.89237 | 45.34243 | 34889 ft | 513 kts | 155° |
| 2026-04-25 22:01 | 1.82707 | 45.37036 | 34885 ft | 513 kts | 155° |
| 2026-04-25 22:01 | 1.77211 | 45.39394 | 34881 ft | 512 kts | 155° |
| 2026-04-25 22:02 | 1.69602 | 45.42666 | 34880 ft | 511 kts | 155° |
| 2026-04-25 22:02 | 1.63058 | 45.45480 | 34884 ft | 510 kts | 155° |
| 2026-04-25 22:03 | 1.56574 | 45.48267 | 34884 ft | 510 kts | 155° |
| 2026-04-25 22:03 | 1.50049 | 45.51072 | 34885 ft | 509 kts | 155° |
| 2026-04-25 22:04 | 1.43544 | 45.53868 | 34885 ft | 509 kts | 155° |
| 2026-04-25 22:04 | 1.37042 | 45.56663 | 34885 ft | 509 kts | 155° |
| 2026-04-25 22:05 | 1.30535 | 45.59459 | 34885 ft | 508 kts | 155° |
| 2026-04-25 22:05 | 1.24078 | 45.62234 | 34881 ft | 508 kts | 155° |
| 2026-04-25 22:06 | 1.17572 | 45.65030 | 34879 ft | 508 kts | 155° |
| 2026-04-25 22:06 | 1.11071 | 45.67823 | 34882 ft | 509 kts | 155° |
| 2026-04-25 22:07 | 1.05663 | 45.70147 | 34888 ft | 508 kts | 155° |
| 2026-04-25 22:07 | 0.98062 | 45.73413 | 34881 ft | 508 kts | 155° |
| 2026-04-25 22:08 | 0.92660 | 45.75733 | 34881 ft | 508 kts | 155° |
| 2026-04-25 22:08 | 0.86159 | 45.78527 | 34881 ft | 508 kts | 155° |
| 2026-04-25 22:09 | 0.79662 | 45.81318 | 34883 ft | 508 kts | 155° |
| 2026-04-25 22:09 | 0.73163 | 45.84110 | 34882 ft | 508 kts | 155° |
| 2026-04-25 22:10 | 0.66691 | 45.86891 | 34885 ft | 509 kts | 155° |
| 2026-04-25 22:10 | 0.60179 | 45.89689 | 34880 ft | 509 kts | 155° |
| 2026-04-25 22:11 | 0.53658 | 45.92494 | 34883 ft | 509 kts | 155° |
| 2026-04-25 22:11 | 0.47170 | 45.95331 | 34880 ft | 509 kts | 155° |
| 2026-04-25 22:12 | 0.40726 | 45.98165 | 34877 ft | 509 kts | 155° |
| 2026-04-25 22:12 | 0.35293 | 46.00551 | 34882 ft | 509 kts | 155° |
| 2026-04-25 22:13 | 0.27750 | 46.03857 | 34881 ft | 509 kts | 155° |
| 2026-04-25 22:13 | 0.21263 | 46.06698 | 34883 ft | 509 kts | 155° |
| 2026-04-25 22:14 | 0.14811 | 46.09526 | 34883 ft | 509 kts | 155° |
| 2026-04-25 22:14 | 0.08308 | 46.12375 | 34881 ft | 509 kts | 155° |
| 2026-04-25 22:15 | 0.01811 | 46.15222 | 34883 ft | 509 kts | 155° |
| 2026-04-25 22:16 | -0.07928 | 46.19490 | 34882 ft | 509 kts | 155° |
| 2026-04-25 22:16 | -0.14414 | 46.22333 | 34883 ft | 509 kts | 155° |
| 2026-04-25 22:17 | -0.20871 | 46.25155 | 34885 ft | 509 kts | 155° |
| 2026-04-25 22:17 | -0.27391 | 46.27935 | 34884 ft | 510 kts | 155° |
| 2026-04-25 22:18 | -0.33918 | 46.30697 | 34888 ft | 509 kts | 156° |
| 2026-04-25 22:18 | -0.40439 | 46.33466 | 34884 ft | 509 kts | 156° |
| 2026-04-25 22:19 | -0.46952 | 46.36238 | 34882 ft | 509 kts | 155° |
| 2026-04-25 22:19 | -0.53466 | 46.39013 | 34881 ft | 508 kts | 155° |
| 2026-04-25 22:20 | -0.59973 | 46.41785 | 34887 ft | 508 kts | 156° |
| 2026-04-25 22:20 | -0.66482 | 46.44556 | 34884 ft | 508 kts | 156° |
| 2026-04-25 22:21 | -0.72954 | 46.47312 | 34885 ft | 508 kts | 156° |
| 2026-04-25 22:21 | -0.79461 | 46.50083 | 34885 ft | 508 kts | 156° |
| 2026-04-25 22:22 | -0.85969 | 46.52855 | 34883 ft | 508 kts | 156° |
| 2026-04-25 22:22 | -0.92492 | 46.55633 | 34886 ft | 508 kts | 156° |
| 2026-04-25 22:23 | -0.98974 | 46.58394 | 34889 ft | 509 kts | 156° |
| 2026-04-25 22:23 | -1.05487 | 46.61169 | 34887 ft | 509 kts | 156° |
| 2026-04-25 22:24 | -1.12010 | 46.63948 | 34887 ft | 509 kts | 156° |
| 2026-04-25 22:24 | -1.18537 | 46.66729 | 34888 ft | 509 kts | 156° |
| 2026-04-25 22:25 | -1.25058 | 46.69511 | 34886 ft | 510 kts | 156° |
| 2026-04-25 22:25 | -1.31538 | 46.72276 | 34888 ft | 510 kts | 156° |
| 2026-04-25 22:26 | -1.38064 | 46.75061 | 34887 ft | 510 kts | 156° |
| 2026-04-25 22:26 | -1.44596 | 46.77849 | 34885 ft | 510 kts | 156° |
| 2026-04-25 22:27 | -1.51123 | 46.80635 | 34885 ft | 510 kts | 156° |
| 2026-04-25 22:27 | -1.57649 | 46.83420 | 34885 ft | 510 kts | 156° |
| 2026-04-25 22:28 | -1.64173 | 46.86205 | 34887 ft | 510 kts | 156° |
| 2026-04-25 22:28 | -1.70693 | 46.88989 | 34890 ft | 509 kts | 156° |
| 2026-04-25 22:29 | -1.77191 | 46.91763 | 34884 ft | 507 kts | 156° |
| 2026-04-25 22:29 | -1.83669 | 46.94528 | 34883 ft | 505 kts | 156° |
| 2026-04-25 22:30 | -1.93354 | 46.98664 | 34881 ft | 504 kts | 156° |
| 2026-04-25 22:30 | -1.98717 | 47.00954 | 34892 ft | 504 kts | 157° |
| 2026-04-25 22:31 | -2.06249 | 47.04171 | 34885 ft | 504 kts | 157° |
| 2026-04-25 22:31 | -2.12651 | 47.06905 | 34885 ft | 504 kts | 157° |
| 2026-04-25 22:32 | -2.19099 | 47.09659 | 34885 ft | 504 kts | 157° |
| 2026-04-25 22:32 | -2.25551 | 47.12416 | 34883 ft | 504 kts | 157° |
| 2026-04-25 22:33 | -2.32017 | 47.15178 | 34884 ft | 505 kts | 157° |
| 2026-04-25 22:33 | -2.38499 | 47.17948 | 34883 ft | 506 kts | 157° |
| 2026-04-25 22:34 | -2.44975 | 47.20715 | 34883 ft | 506 kts | 157° |
| 2026-04-25 22:34 | -2.51420 | 47.23469 | 34885 ft | 507 kts | 157° |
| 2026-04-25 22:35 | -2.57904 | 47.26241 | 34882 ft | 507 kts | 157° |
| 2026-04-25 22:35 | -2.64383 | 47.29011 | 34882 ft | 507 kts | 157° |
| 2026-04-25 22:36 | -2.70876 | 47.31786 | 34882 ft | 507 kts | 157° |
| 2026-04-25 22:36 | -2.77359 | 47.34559 | 34881 ft | 507 kts | 157° |
| 2026-04-25 22:37 | -2.83840 | 47.37330 | 34890 ft | 507 kts | 157° |
| 2026-04-25 22:37 | -2.90339 | 47.40110 | 34880 ft | 507 kts | 157° |
| 2026-04-25 22:38 | -2.96817 | 47.42881 | 34882 ft | 507 kts | 157° |
| 2026-04-25 22:38 | -3.03268 | 47.45641 | 34882 ft | 507 kts | 157° |
| 2026-04-25 22:39 | -3.09757 | 47.48417 | 34882 ft | 507 kts | 157° |
| 2026-04-25 22:39 | -3.16246 | 47.51194 | 34882 ft | 507 kts | 157° |
| 2026-04-25 22:40 | -3.22742 | 47.53975 | 34882 ft | 507 kts | 157° |
| 2026-04-25 22:40 | -3.29241 | 47.56758 | 34879 ft | 507 kts | 157° |
| 2026-04-25 22:41 | -3.35733 | 47.59538 | 34879 ft | 507 kts | 157° |
| 2026-04-25 22:41 | -3.42226 | 47.62320 | 34881 ft | 507 kts | 157° |
| 2026-04-25 22:42 | -3.48723 | 47.65103 | 34876 ft | 507 kts | 157° |
| 2026-04-25 22:42 | -3.55212 | 47.67883 | 34877 ft | 507 kts | 157° |
| 2026-04-25 22:43 | -3.61661 | 47.70647 | 34880 ft | 507 kts | 157° |
| 2026-04-25 22:43 | -3.68144 | 47.73426 | 34877 ft | 507 kts | 157° |
| 2026-04-25 22:44 | -3.74625 | 47.76203 | 34879 ft | 506 kts | 157° |
| 2026-04-25 22:44 | -3.81110 | 47.78984 | 34879 ft | 506 kts | 157° |
| 2026-04-25 22:45 | -3.87593 | 47.81764 | 34880 ft | 506 kts | 158° |
| 2026-04-25 22:45 | -3.94033 | 47.84526 | 34883 ft | 506 kts | 158° |
| 2026-04-25 22:46 | -4.00515 | 47.87306 | 34882 ft | 507 kts | 158° |
| 2026-04-25 22:46 | -4.07001 | 47.90090 | 34877 ft | 507 kts | 158° |
| 2026-04-25 22:47 | -4.13499 | 47.92879 | 34877 ft | 508 kts | 158° |
| 2026-04-25 22:47 | -4.20001 | 47.95669 | 34877 ft | 508 kts | 158° |
| 2026-04-25 22:48 | -4.26500 | 47.98456 | 34874 ft | 508 kts | 157° |
| 2026-04-25 22:48 | -4.32995 | 48.01237 | 34874 ft | 508 kts | 158° |
| 2026-04-25 22:49 | -4.39509 | 48.04027 | 34874 ft | 509 kts | 158° |
| 2026-04-25 22:49 | -4.46019 | 48.06818 | 34875 ft | 509 kts | 158° |
| 2026-04-25 22:50 | -4.52497 | 48.09595 | 34874 ft | 509 kts | 158° |
| 2026-04-25 22:50 | -4.59012 | 48.12389 | 34878 ft | 509 kts | 157° |
| 2026-04-25 22:51 | -4.65532 | 48.15186 | 34874 ft | 509 kts | 157° |
| 2026-04-25 22:51 | -4.72048 | 48.17981 | 34874 ft | 509 kts | 157° |
| 2026-04-25 22:52 | -4.78545 | 48.20769 | 34874 ft | 508 kts | 157° |
| 2026-04-25 22:52 | -4.83957 | 48.23092 | 34874 ft | 508 kts | 157° |
| 2026-04-25 22:53 | -4.91510 | 48.26334 | 34873 ft | 508 kts | 157° |
| 2026-04-25 22:53 | -4.98001 | 48.29121 | 34874 ft | 507 kts | 157° |
| 2026-04-25 22:54 | -5.04489 | 48.31908 | 34874 ft | 507 kts | 157° |
| 2026-04-25 22:54 | -5.10976 | 48.34694 | 34874 ft | 507 kts | 157° |
| 2026-04-25 22:55 | -5.17460 | 48.37480 | 34873 ft | 507 kts | 157° |
| 2026-04-25 22:55 | -5.23951 | 48.40270 | 34870 ft | 506 kts | 157° |
| 2026-04-25 22:56 | -5.29325 | 48.42580 | 34872 ft | 506 kts | 157° |
| 2026-04-25 22:56 | -5.35794 | 48.45361 | 34870 ft | 506 kts | 157° |
| 2026-04-25 22:57 | -5.43315 | 48.48595 | 34871 ft | 506 kts | 157° |
| 2026-04-25 22:57 | -5.48735 | 48.50927 | 34872 ft | 506 kts | 157° |
| 2026-04-25 22:58 | -5.55167 | 48.53694 | 34871 ft | 506 kts | 157° |
| 2026-04-25 22:58 | -5.61644 | 48.56481 | 34872 ft | 506 kts | 157° |
| 2026-04-25 22:59 | -5.68116 | 48.59267 | 34872 ft | 506 kts | 157° |
| 2026-04-25 22:59 | -5.74606 | 48.62061 | 34868 ft | 507 kts | 157° |
| 2026-04-25 23:00 | -5.81088 | 48.64853 | 34874 ft | 507 kts | 157° |
| 2026-04-25 23:00 | -5.87578 | 48.67648 | 34874 ft | 508 kts | 157° |
| 2026-04-25 23:01 | -5.94043 | 48.70434 | 34875 ft | 509 kts | 157° |
| 2026-04-25 23:01 | -6.00593 | 48.73257 | 34871 ft | 509 kts | 157° |
| 2026-04-25 23:02 | -6.07063 | 48.76046 | 34870 ft | 510 kts | 157° |
| 2026-04-25 23:02 | -6.13591 | 48.78861 | 34873 ft | 510 kts | 157° |
| 2026-04-25 23:03 | -6.20117 | 48.81676 | 34871 ft | 510 kts | 157° |
| 2026-04-25 23:03 | -6.26659 | 48.84499 | 34869 ft | 511 kts | 157° |
| 2026-04-25 23:04 | -6.33182 | 48.87314 | 34871 ft | 511 kts | 157° |
| 2026-04-25 23:04 | -6.39712 | 48.90133 | 34868 ft | 511 kts | 157° |
| 2026-04-25 23:05 | -6.46239 | 48.92951 | 34868 ft | 510 kts | 157° |
| 2026-04-25 23:05 | -6.52764 | 48.95769 | 34868 ft | 510 kts | 157° |
| 2026-04-25 23:06 | -6.59292 | 48.98590 | 34872 ft | 510 kts | 157° |
| 2026-04-25 23:06 | -6.65761 | 49.01386 | 34871 ft | 510 kts | 157° |
| 2026-04-25 23:07 | -6.72289 | 49.04208 | 34871 ft | 510 kts | 157° |
| 2026-04-25 23:07 | -6.78819 | 49.07032 | 34871 ft | 510 kts | 157° |
| 2026-04-25 23:08 | -6.85344 | 49.09855 | 34869 ft | 511 kts | 157° |
| 2026-04-25 23:08 | -6.91874 | 49.12681 | 34870 ft | 511 kts | 157° |
| 2026-04-25 23:09 | -6.98369 | 49.15493 | 34873 ft | 511 kts | 157° |
| 2026-04-25 23:09 | -7.04906 | 49.18321 | 34872 ft | 511 kts | 157° |
| 2026-04-25 23:10 | -7.11457 | 49.21153 | 34871 ft | 512 kts | 157° |
| 2026-04-25 23:10 | -7.18008 | 49.23987 | 34872 ft | 512 kts | 157° |
| 2026-04-25 23:11 | -7.24561 | 49.26825 | 34869 ft | 512 kts | 157° |
| 2026-04-25 23:11 | -7.31064 | 49.29641 | 34869 ft | 512 kts | 157° |
| 2026-04-25 23:12 | -7.37617 | 49.32480 | 34871 ft | 512 kts | 157° |
| 2026-04-25 23:12 | -7.44163 | 49.35316 | 34871 ft | 512 kts | 157° |
| 2026-04-25 23:13 | -7.50709 | 49.38154 | 34873 ft | 512 kts | 157° |
| 2026-04-25 23:13 | -7.57254 | 49.40992 | 34875 ft | 512 kts | 157° |
| 2026-04-25 23:14 | -7.63813 | 49.43837 | 34874 ft | 512 kts | 157° |
| 2026-04-25 23:14 | -7.70313 | 49.46658 | 34874 ft | 512 kts | 157° |
| 2026-04-25 23:15 | -7.76864 | 49.49501 | 34874 ft | 512 kts | 157° |
| 2026-04-25 23:15 | -7.83422 | 49.52349 | 34873 ft | 512 kts | 157° |
| 2026-04-25 23:16 | -7.89968 | 49.55192 | 34871 ft | 512 kts | 157° |
| 2026-04-25 23:16 | -7.96523 | 49.58041 | 34871 ft | 512 kts | 157° |
| 2026-04-25 23:17 | -8.03081 | 49.60891 | 34875 ft | 513 kts | 157° |
| 2026-04-25 23:17 | -8.09583 | 49.63719 | 34876 ft | 513 kts | 157° |
| 2026-04-25 23:18 | -8.16147 | 49.66574 | 34873 ft | 513 kts | 157° |
| 2026-04-25 23:18 | -8.22710 | 49.69429 | 34875 ft | 514 kts | 157° |
| 2026-04-25 23:19 | -8.29284 | 49.72291 | 34874 ft | 514 kts | 157° |
| 2026-04-25 23:19 | -8.35863 | 49.75156 | 34877 ft | 514 kts | 157° |
| 2026-04-25 23:20 | -8.42437 | 49.78020 | 34877 ft | 514 kts | 157° |
| 2026-04-25 23:20 | -8.48975 | 49.80869 | 34877 ft | 515 kts | 157° |
| 2026-04-25 23:21 | -8.55550 | 49.83735 | 34877 ft | 515 kts | 157° |
| 2026-04-25 23:21 | -8.62126 | 49.86603 | 34877 ft | 515 kts | 157° |
| 2026-04-25 23:22 | -8.68707 | 49.89474 | 34880 ft | 514 kts | 157° |
| 2026-04-25 23:23 | -8.78576 | 49.93782 | 34878 ft | 515 kts | 157° |
| 2026-04-25 23:23 | -8.85159 | 49.96657 | 34877 ft | 515 kts | 157° |
| 2026-04-25 23:24 | -8.91737 | 49.99530 | 34875 ft | 515 kts | 157° |
| 2026-04-25 23:24 | -8.98279 | 50.02390 | 34879 ft | 515 kts | 157° |
| 2026-04-25 23:25 | -9.04867 | 50.05270 | 34880 ft | 515 kts | 157° |
| 2026-04-25 23:25 | -9.11445 | 50.08147 | 34878 ft | 515 kts | 157° |
| 2026-04-25 23:26 | -9.18029 | 50.11028 | 34880 ft | 515 kts | 157° |
| 2026-04-25 23:26 | -9.24604 | 50.13906 | 34879 ft | 515 kts | 157° |
| 2026-04-25 23:27 | -9.31176 | 50.16784 | 34879 ft | 514 kts | 157° |
| 2026-04-25 23:27 | -9.37753 | 50.19666 | 34879 ft | 514 kts | 157° |
| 2026-04-25 23:28 | -9.44320 | 50.22544 | 34878 ft | 514 kts | 157° |
| 2026-04-25 23:28 | -9.50886 | 50.25423 | 34880 ft | 514 kts | 157° |
| 2026-04-25 23:29 | -9.57415 | 50.28287 | 34881 ft | 514 kts | 157° |
| 2026-04-25 23:29 | -9.64023 | 50.31187 | 34879 ft | 514 kts | 158° |
| 2026-04-25 23:30 | -9.70560 | 50.34057 | 34881 ft | 514 kts | 158° |
| 2026-04-25 23:30 | -9.77127 | 50.36941 | 34883 ft | 514 kts | 158° |
| 2026-04-25 23:31 | -9.83696 | 50.39828 | 34883 ft | 514 kts | 158° |
| 2026-04-25 23:31 | -9.90258 | 50.42713 | 34882 ft | 515 kts | 158° |
| 2026-04-25 23:32 | -9.96828 | 50.45603 | 34884 ft | 515 kts | 158° |
| 2026-04-25 23:32 | -10.03400 | 50.48494 | 34886 ft | 515 kts | 158° |
| 2026-04-25 23:33 | -10.09972 | 50.51384 | 34882 ft | 515 kts | 158° |
| 2026-04-25 23:33 | -10.16545 | 50.54276 | 34885 ft | 515 kts | 158° |
| 2026-04-25 23:34 | -10.23081 | 50.57154 | 34890 ft | 514 kts | 157° |
| 2026-04-25 23:34 | -10.29627 | 50.60038 | 34889 ft | 513 kts | 157° |
| 2026-04-25 23:35 | -10.36160 | 50.62918 | 34882 ft | 511 kts | 157° |
| 2026-04-25 23:35 | -10.42672 | 50.65791 | 34881 ft | 510 kts | 158° |
| 2026-04-25 23:36 | -10.49175 | 50.68659 | 34884 ft | 509 kts | 158° |
| 2026-04-25 23:36 | -10.55669 | 50.71526 | 34896 ft | 508 kts | 158° |
| 2026-04-25 23:37 | -10.62157 | 50.74391 | 34883 ft | 507 kts | 158° |
| 2026-04-25 23:37 | -10.68614 | 50.77243 | 34884 ft | 506 kts | 158° |
| 2026-04-25 23:38 | -10.75065 | 50.80095 | 34884 ft | 505 kts | 158° |
| 2026-04-25 23:38 | -10.81515 | 50.82947 | 34888 ft | 505 kts | 158° |
| 2026-04-25 23:39 | -10.87958 | 50.85798 | 34885 ft | 505 kts | 158° |
| 2026-04-25 23:39 | -10.94405 | 50.88652 | 34884 ft | 506 kts | 158° |
| 2026-04-25 23:40 | -11.00864 | 50.91512 | 34884 ft | 507 kts | 158° |
| 2026-04-25 23:40 | -11.07325 | 50.94374 | 34886 ft | 507 kts | 158° |
| 2026-04-25 23:41 | -11.13758 | 50.97226 | 34887 ft | 508 kts | 158° |
| 2026-04-25 23:41 | -11.20243 | 51.00102 | 34886 ft | 508 kts | 158° |
| 2026-04-25 23:42 | -11.26738 | 51.02984 | 34888 ft | 509 kts | 158° |
| 2026-04-25 23:42 | -11.33234 | 51.05868 | 34888 ft | 509 kts | 158° |
| 2026-04-25 23:43 | -11.39713 | 51.08746 | 34885 ft | 508 kts | 158° |
| 2026-04-25 23:43 | -11.46202 | 51.11629 | 34886 ft | 508 kts | 158° |
| 2026-04-25 23:44 | -11.51588 | 51.14024 | 34891 ft | 508 kts | 158° |
| 2026-04-25 23:44 | -11.58063 | 51.16904 | 34890 ft | 508 kts | 158° |
| 2026-04-25 23:45 | -11.64536 | 51.19784 | 34883 ft | 507 kts | 158° |
| 2026-04-25 23:45 | -11.71013 | 51.22668 | 34887 ft | 507 kts | 158° |
| 2026-04-25 23:46 | -11.77488 | 51.25553 | 34893 ft | 507 kts | 158° |
| 2026-04-25 23:46 | -11.83915 | 51.28417 | 34887 ft | 507 kts | 158° |
| 2026-04-25 23:47 | -11.90393 | 51.31306 | 34887 ft | 507 kts | 158° |
| 2026-04-25 23:47 | -11.96868 | 51.34195 | 34888 ft | 507 kts | 158° |
| 2026-04-25 23:48 | -12.03337 | 51.37084 | 34893 ft | 507 kts | 158° |
| 2026-04-25 23:48 | -12.09808 | 51.39975 | 34890 ft | 508 kts | 158° |
| 2026-04-25 23:49 | -12.16256 | 51.42855 | 34895 ft | 508 kts | 158° |
| 2026-04-25 23:49 | -12.22751 | 51.45757 | 34891 ft | 508 kts | 158° |
| 2026-04-25 23:50 | -12.29249 | 51.48664 | 34895 ft | 509 kts | 158° |
| 2026-04-25 23:50 | -12.35706 | 51.51554 | 34889 ft | 509 kts | 158° |
| 2026-04-25 23:51 | -12.42202 | 51.54463 | 34896 ft | 509 kts | 158° |
| 2026-04-25 23:51 | -12.48665 | 51.57359 | 34890 ft | 509 kts | 158° |
| 2026-04-25 23:52 | -12.55166 | 51.60274 | 34893 ft | 510 kts | 158° |
| 2026-04-25 23:52 | -12.61661 | 51.63187 | 34892 ft | 510 kts | 158° |
| 2026-04-25 23:53 | -12.68163 | 51.66106 | 34899 ft | 510 kts | 159° |
| 2026-04-25 23:53 | -12.74631 | 51.69010 | 34900 ft | 510 kts | 159° |
| 2026-04-25 23:54 | -12.81128 | 51.71930 | 34885 ft | 510 kts | 158° |
| 2026-04-25 23:54 | -12.87634 | 51.74855 | 34896 ft | 510 kts | 158° |
| 2026-04-25 23:55 | -12.94139 | 51.77781 | 34900 ft | 510 kts | 158° |
| 2026-04-25 23:55 | -13.00637 | 51.80706 | 34889 ft | 510 kts | 159° |
| 2026-04-25 23:56 | -13.07143 | 51.83636 | 34905 ft | 510 kts | 159° |
| 2026-04-25 23:56 | -13.13599 | 51.86546 | 34907 ft | 510 kts | 159° |
| 2026-04-25 23:57 | -13.20099 | 51.89476 | 34890 ft | 510 kts | 159° |
| 2026-04-25 23:57 | -13.26598 | 51.92409 | 34889 ft | 510 kts | 159° |
| 2026-04-25 23:58 | -13.33105 | 51.95347 | 34893 ft | 510 kts | 159° |
| 2026-04-25 23:58 | -13.39614 | 51.98288 | 34900 ft | 511 kts | 159° |
| 2026-04-25 23:59 | -13.46118 | 52.01227 | 34894 ft | 511 kts | 159° |
| 2026-04-25 23:59 | -13.52631 | 52.04171 | 34896 ft | 511 kts | 159° |
| 2026-04-26 00:00 | -13.59109 | 52.07103 | 34896 ft | 511 kts | 159° |
| 2026-04-26 00:00 | -13.65622 | 52.10053 | 34902 ft | 511 kts | 159° |
| 2026-04-26 00:01 | -13.72127 | 52.13001 | 34901 ft | 511 kts | 159° |
| 2026-04-26 00:01 | -13.78630 | 52.15950 | 34898 ft | 511 kts | 159° |
| 2026-04-26 00:02 | -13.85102 | 52.18887 | 34899 ft | 510 kts | 159° |
| 2026-04-26 00:02 | -13.91606 | 52.21840 | 34900 ft | 510 kts | 159° |
| 2026-04-26 00:03 | -13.98099 | 52.24790 | 34900 ft | 510 kts | 159° |
| 2026-04-26 00:03 | -14.04603 | 52.27747 | 34897 ft | 510 kts | 159° |
| 2026-04-26 00:04 | -14.11044 | 52.30677 | 34897 ft | 509 kts | 159° |
| 2026-04-26 00:04 | -14.17532 | 52.33630 | 34898 ft | 509 kts | 159° |
| 2026-04-26 00:05 | -14.24008 | 52.36579 | 34903 ft | 509 kts | 159° |
| 2026-04-26 00:05 | -14.30482 | 52.39530 | 34898 ft | 509 kts | 159° |
| 2026-04-26 00:06 | -14.36960 | 52.42484 | 34899 ft | 508 kts | 159° |
| 2026-04-26 00:06 | -14.43436 | 52.45439 | 34900 ft | 508 kts | 159° |
| 2026-04-26 00:07 | -14.49912 | 52.48396 | 34902 ft | 508 kts | 159° |
| 2026-04-26 00:07 | -14.56351 | 52.51338 | 34900 ft | 508 kts | 159° |
| 2026-04-26 00:08 | -14.62833 | 52.54302 | 34899 ft | 508 kts | 159° |
| 2026-04-26 00:08 | -14.69301 | 52.57261 | 34899 ft | 508 kts | 159° |
| 2026-04-26 00:09 | -14.75733 | 52.60205 | 34898 ft | 508 kts | 159° |
| 2026-04-26 00:09 | -14.82209 | 52.63172 | 34898 ft | 508 kts | 159° |
| 2026-04-26 00:10 | -14.88677 | 52.66137 | 34904 ft | 509 kts | 159° |
| 2026-04-26 00:10 | -14.95175 | 52.69117 | 34901 ft | 509 kts | 159° |
| 2026-04-26 00:11 | -15.01602 | 52.72068 | 34902 ft | 509 kts | 159° |
| 2026-04-26 00:11 | -15.08070 | 52.75038 | 34901 ft | 509 kts | 159° |
| 2026-04-26 00:12 | -15.14546 | 52.78014 | 34904 ft | 509 kts | 159° |
| 2026-04-26 00:12 | -15.21014 | 52.80989 | 34904 ft | 509 kts | 159° |
| 2026-04-26 00:13 | -15.27487 | 52.83968 | 34906 ft | 508 kts | 159° |
| 2026-04-26 00:13 | -15.33949 | 52.86945 | 34907 ft | 508 kts | 159° |
| 2026-04-26 00:14 | -15.40414 | 52.89924 | 34903 ft | 508 kts | 159° |
| 2026-04-26 00:14 | -15.46833 | 52.92884 | 34911 ft | 507 kts | 159° |
| 2026-04-26 00:15 | -15.53281 | 52.95860 | 34909 ft | 507 kts | 159° |
| 2026-04-26 00:15 | -15.59729 | 52.98838 | 34907 ft | 506 kts | 159° |
| 2026-04-26 00:16 | -15.66169 | 53.01814 | 34907 ft | 506 kts | 159° |
| 2026-04-26 00:16 | -15.72605 | 53.04790 | 34907 ft | 506 kts | 159° |
| 2026-04-26 00:17 | -15.78995 | 53.07747 | 34912 ft | 505 kts | 159° |
| 2026-04-26 00:17 | -15.85418 | 53.10722 | 34909 ft | 505 kts | 159° |
| 2026-04-26 00:18 | -15.91847 | 53.13701 | 34905 ft | 505 kts | 159° |
| 2026-04-26 00:18 | -15.98266 | 53.16678 | 34909 ft | 505 kts | 159° |
| 2026-04-26 00:19 | -16.04696 | 53.19662 | 34908 ft | 505 kts | 159° |
| 2026-04-26 00:19 | -16.11111 | 53.22641 | 34916 ft | 505 kts | 159° |
| 2026-04-26 00:20 | -16.17483 | 53.25602 | 34907 ft | 505 kts | 159° |
| 2026-04-26 00:20 | -16.23896 | 53.28585 | 34916 ft | 505 kts | 159° |
| 2026-04-26 00:21 | -16.30319 | 53.31575 | 34911 ft | 505 kts | 159° |
| 2026-04-26 00:21 | -16.36729 | 53.34561 | 34909 ft | 505 kts | 159° |
| 2026-04-26 00:22 | -16.43145 | 53.37550 | 34916 ft | 504 kts | 159° |
| 2026-04-26 00:22 | -16.49562 | 53.40536 | 34913 ft | 504 kts | 159° |
| 2026-04-26 00:23 | -16.55968 | 53.43520 | 34915 ft | 504 kts | 159° |
| 2026-04-26 00:23 | -16.62331 | 53.46487 | 34914 ft | 504 kts | 159° |
| 2026-04-26 00:24 | -16.68735 | 53.49476 | 34918 ft | 504 kts | 159° |
| 2026-04-26 00:24 | -16.75139 | 53.52468 | 34917 ft | 504 kts | 159° |
| 2026-04-26 00:25 | -16.81549 | 53.55464 | 34913 ft | 504 kts | 159° |
| 2026-04-26 00:25 | -16.87952 | 53.58459 | 34908 ft | 504 kts | 159° |
| 2026-04-26 00:26 | -16.94359 | 53.61458 | 34914 ft | 504 kts | 159° |
| 2026-04-26 00:26 | -17.00757 | 53.64456 | 34914 ft | 504 kts | 159° |
| 2026-04-26 00:27 | -17.07151 | 53.67454 | 34914 ft | 503 kts | 159° |
| 2026-04-26 00:27 | -17.13541 | 53.70452 | 34910 ft | 503 kts | 159° |
| 2026-04-26 00:28 | -17.19890 | 53.73433 | 34910 ft | 503 kts | 159° |
| 2026-04-26 00:28 | -17.26269 | 53.76431 | 34911 ft | 502 kts | 159° |
| 2026-04-26 00:29 | -17.32652 | 53.79432 | 34911 ft | 502 kts | 159° |
| 2026-04-26 00:29 | -17.39030 | 53.82433 | 34916 ft | 502 kts | 159° |
| 2026-04-26 00:30 | -17.45404 | 53.85436 | 34911 ft | 502 kts | 159° |
| 2026-04-26 00:30 | -17.51732 | 53.88418 | 34912 ft | 501 kts | 159° |
| 2026-04-26 00:31 | -17.58097 | 53.91421 | 34916 ft | 501 kts | 159° |
| 2026-04-26 00:31 | -17.63383 | 53.93916 | 34915 ft | 501 kts | 159° |
| 2026-04-26 00:32 | -17.70782 | 53.97411 | 34912 ft | 501 kts | 159° |
| 2026-04-26 00:32 | -17.79251 | 54.01416 | 34904 ft | 501 kts | 159° |
| 2026-04-26 00:33 | -17.85607 | 54.04424 | 34912 ft | 501 kts | 159° |
| 2026-04-26 00:33 | -17.91962 | 54.07435 | 34915 ft | 501 kts | 159° |
| 2026-04-26 00:34 | -17.98338 | 54.10458 | 34921 ft | 501 kts | 159° |
| 2026-04-26 00:34 | -18.04691 | 54.13473 | 34916 ft | 501 kts | 159° |
| 2026-04-26 00:35 | -18.11007 | 54.16471 | 34912 ft | 501 kts | 159° |
| 2026-04-26 00:35 | -18.17366 | 54.19480 | 34910 ft | 500 kts | 159° |
| 2026-04-26 00:36 | -18.23716 | 54.22484 | 34904 ft | 500 kts | 159° |
| 2026-04-26 00:36 | -18.30069 | 54.25494 | 34916 ft | 500 kts | 160° |
| 2026-04-26 00:37 | -18.36417 | 54.28505 | 34901 ft | 500 kts | 160° |
| 2026-04-26 00:37 | -18.42730 | 54.31502 | 34920 ft | 499 kts | 160° |
| 2026-04-26 00:38 | -18.49059 | 54.34509 | 34905 ft | 499 kts | 160° |
| 2026-04-26 00:38 | -18.55385 | 54.37517 | 34905 ft | 499 kts | 160° |
| 2026-04-26 00:39 | -18.61727 | 54.40515 | 34917 ft | 498 kts | 161° |
| 2026-04-26 00:39 | -18.68117 | 54.43146 | 34918 ft | 495 kts | 164° |
| 2026-04-26 00:40 | -18.74591 | 54.45643 | 34921 ft | 495 kts | 164° |
| 2026-04-26 00:40 | -18.81063 | 54.48174 | 34908 ft | 496 kts | 163° |
| 2026-04-26 00:41 | -18.87525 | 54.50746 | 34925 ft | 496 kts | 163° |
| 2026-04-26 00:41 | -18.93969 | 54.53331 | 34911 ft | 495 kts | 163° |
| 2026-04-26 00:42 | -19.00403 | 54.55914 | 34911 ft | 494 kts | 163° |
| 2026-04-26 00:42 | -19.06805 | 54.58483 | 34912 ft | 493 kts | 164° |
| 2026-04-26 00:43 | -19.13225 | 54.61060 | 34913 ft | 493 kts | 164° |
| 2026-04-26 00:43 | -19.19641 | 54.63638 | 34927 ft | 492 kts | 164° |
| 2026-04-26 00:44 | -19.26011 | 54.66199 | 34912 ft | 491 kts | 164° |
| 2026-04-26 00:44 | -19.32406 | 54.68772 | 34913 ft | 491 kts | 164° |
| 2026-04-26 00:45 | -19.38789 | 54.71343 | 34912 ft | 490 kts | 164° |
| 2026-04-26 00:45 | -19.45166 | 54.73914 | 34915 ft | 490 kts | 164° |
| 2026-04-26 00:46 | -19.51505 | 54.76471 | 34926 ft | 489 kts | 164° |
| 2026-04-26 00:46 | -19.57872 | 54.79042 | 34914 ft | 489 kts | 164° |
| 2026-04-26 00:47 | -19.64217 | 54.81607 | 34913 ft | 488 kts | 164° |
| 2026-04-26 00:47 | -19.70569 | 54.84176 | 34918 ft | 488 kts | 164° |
| 2026-04-26 00:48 | -19.76915 | 54.86745 | 34918 ft | 488 kts | 164° |
| 2026-04-26 00:48 | -19.83233 | 54.89304 | 34924 ft | 487 kts | 164° |
| 2026-04-26 00:49 | -19.89570 | 54.91874 | 34917 ft | 487 kts | 164° |
| 2026-04-26 00:49 | -19.95902 | 54.94444 | 34918 ft | 487 kts | 164° |
| 2026-04-26 00:50 | -20.02240 | 54.97019 | 34915 ft | 487 kts | 164° |
| 2026-04-26 00:50 | -20.08570 | 54.99592 | 34916 ft | 487 kts | 164° |
| 2026-04-26 00:51 | -20.14878 | 55.02161 | 34797 ft | 479 kts | 164° |
| 2026-04-26 00:51 | -20.17954 | 55.03418 | 34472 ft | 471 kts | 164° |
| 2026-04-26 00:51 | -20.21020 | 55.04668 | 33797 ft | 471 kts | 164° |
| 2026-04-26 00:52 | -20.24094 | 55.05917 | 32865 ft | 475 kts | 164° |
| 2026-04-26 00:52 | -20.27182 | 55.07172 | 32102 ft | 474 kts | 163° |
| 2026-04-26 00:52 | -20.30219 | 55.08410 | 31531 ft | 470 kts | 163° |
| 2026-04-26 00:52 | -20.33252 | 55.09650 | 31072 ft | 464 kts | 163° |
| 2026-04-26 00:53 | -20.36242 | 55.10872 | 30753 ft | 454 kts | 163° |
| 2026-04-26 00:53 | -20.39147 | 55.12063 | 30696 ft | 439 kts | 163° |
| 2026-04-26 00:53 | -20.41953 | 55.13213 | 30623 ft | 425 kts | 163° |
| 2026-04-26 00:53 | -20.44680 | 55.14329 | 30545 ft | 412 kts | 163° |
| 2026-04-26 00:54 | -20.47326 | 55.15412 | 30437 ft | 401 kts | 163° |
| 2026-04-26 00:54 | -20.49862 | 55.16447 | 30294 ft | 390 kts | 164° |
| 2026-04-26 00:54 | -20.52443 | 55.17220 | 29952 ft | 381 kts | 174° |
| 2026-04-26 00:54 | -20.55051 | 55.17432 | 29449 ft | 375 kts | 185° |
| 2026-04-26 00:55 | -20.57616 | 55.17085 | 28956 ft | 370 kts | 196° |
| 2026-04-26 00:55 | -20.60030 | 55.16198 | 28491 ft | 366 kts | 207° |
| 2026-04-26 00:55 | -20.62199 | 55.14811 | 28040 ft | 362 kts | 218° |
| 2026-04-26 00:55 | -20.64037 | 55.12988 | 27609 ft | 360 kts | 229° |
| 2026-04-26 00:56 | -20.65471 | 55.10804 | 27185 ft | 360 kts | 240° |
| 2026-04-26 00:56 | -20.66445 | 55.08350 | 26766 ft | 360 kts | 252° |
| 2026-04-26 00:56 | -20.66919 | 55.05724 | 26328 ft | 362 kts | 263° |
| 2026-04-26 00:56 | -20.66914 | 55.02989 | 25397 ft | 379 kts | 273° |
| 2026-04-26 00:57 | -20.66392 | 55.00142 | 24257 ft | 403 kts | 284° |
| 2026-04-26 00:57 | -20.65309 | 54.97296 | 23358 ft | 423 kts | 295° |
| 2026-04-26 00:57 | -20.63703 | 54.94591 | 22331 ft | 436 kts | 305° |
| 2026-04-26 00:57 | -20.61669 | 54.92197 | 21379 ft | 445 kts | 315° |
| 2026-04-26 00:58 | -20.59205 | 54.90133 | 20429 ft | 454 kts | 325° |
| 2026-04-26 00:58 | -20.56418 | 54.88519 | 19592 ft | 458 kts | 335° |
| 2026-04-26 00:58 | -20.53424 | 54.87317 | 18813 ft | 460 kts | 341° |
| 2026-04-26 00:58 | -20.50375 | 54.86275 | 18012 ft | 460 kts | 342° |
| 2026-04-26 00:59 | -20.47312 | 54.85274 | 17149 ft | 460 kts | 343° |
| 2026-04-26 00:59 | -20.44269 | 54.84288 | 16796 ft | 448 kts | 343° |
| 2026-04-26 00:59 | -20.41334 | 54.83344 | 16690 ft | 431 kts | 343° |
| 2026-04-26 00:59 | -20.38520 | 54.82444 | 16586 ft | 415 kts | 343° |
| 2026-04-26 01:00 | -20.35828 | 54.81587 | 16500 ft | 401 kts | 343° |
| 2026-04-26 01:00 | -20.33197 | 54.80752 | 16366 ft | 389 kts | 343° |
| 2026-04-26 01:00 | -20.30627 | 54.79938 | 16153 ft | 379 kts | 343° |
| 2026-04-26 01:00 | -20.28116 | 54.79145 | 15824 ft | 374 kts | 343° |
| 2026-04-26 01:01 | -20.25630 | 54.78361 | 15438 ft | 372 kts | 343° |
| 2026-04-26 01:01 | -20.23158 | 54.77582 | 15033 ft | 369 kts | 343° |
| 2026-04-26 01:01 | -20.20698 | 54.76808 | 14658 ft | 366 kts | 343° |
| 2026-04-26 01:01 | -20.18265 | 54.76042 | 14296 ft | 363 kts | 343° |
| 2026-04-26 01:02 | -20.15846 | 54.75282 | 13938 ft | 360 kts | 343° |
| 2026-04-26 01:02 | -20.13454 | 54.74529 | 13510 ft | 359 kts | 343° |
| 2026-04-26 01:02 | -20.11092 | 54.73784 | 13089 ft | 357 kts | 343° |
| 2026-04-26 01:02 | -20.08717 | 54.73036 | 12695 ft | 354 kts | 344° |
| 2026-04-26 01:03 | -20.06361 | 54.72292 | 12270 ft | 352 kts | 344° |
| 2026-04-26 01:03 | -20.03999 | 54.71632 | 11791 ft | 347 kts | 353° |
| 2026-04-26 01:03 | -20.01592 | 54.71703 | 11240 ft | 348 kts | 14° |
| 2026-04-26 01:03 | -19.99383 | 54.72676 | 10843 ft | 342 kts | 36° |
| 2026-04-26 01:04 | -19.97709 | 54.74365 | 10511 ft | 334 kts | 57° |
| 2026-04-26 01:04 | -19.96783 | 54.76576 | 10145 ft | 326 kts | 83° |
| 2026-04-26 01:04 | -19.96976 | 54.78942 | 10030 ft | 325 kts | 112° |
| 2026-04-26 01:04 | -19.98209 | 54.80915 | 10016 ft | 322 kts | 136° |
| 2026-04-26 01:05 | -19.99943 | 54.82400 | 10011 ft | 320 kts | 146° |
| 2026-04-26 01:05 | -20.01834 | 54.83642 | 10008 ft | 318 kts | 150° |
| 2026-04-26 01:05 | -20.03756 | 54.84771 | 9992 ft | 310 kts | 151° |
| 2026-04-26 01:05 | -20.05616 | 54.85828 | 9988 ft | 296 kts | 152° |
| 2026-04-26 01:06 | -20.07399 | 54.86837 | 9982 ft | 285 kts | 152° |
| 2026-04-26 01:06 | -20.09144 | 54.87828 | 10005 ft | 284 kts | 151° |
| 2026-04-26 01:06 | -20.10886 | 54.88824 | 10007 ft | 284 kts | 151° |
| 2026-04-26 01:06 | -20.12629 | 54.89824 | 10009 ft | 285 kts | 151° |
| 2026-04-26 01:07 | -20.14373 | 54.90830 | 10014 ft | 285 kts | 151° |
| 2026-04-26 01:07 | -20.16119 | 54.91839 | 10012 ft | 286 kts | 151° |
| 2026-04-26 01:07 | -20.17866 | 54.92852 | 10010 ft | 286 kts | 151° |
| 2026-04-26 01:07 | -20.19617 | 54.93868 | 10008 ft | 286 kts | 151° |
| 2026-04-26 01:08 | -20.21364 | 54.94883 | 10005 ft | 286 kts | 151° |
| 2026-04-26 01:08 | -20.23109 | 54.95898 | 10006 ft | 286 kts | 151° |
| 2026-04-26 01:08 | -20.24853 | 54.96913 | 10006 ft | 286 kts | 151° |
| 2026-04-26 01:08 | -20.26596 | 54.97928 | 10005 ft | 285 kts | 151° |
| 2026-04-26 01:09 | -20.28334 | 54.98940 | 10000 ft | 285 kts | 151° |
| 2026-04-26 01:09 | -20.30078 | 54.99956 | 10002 ft | 285 kts | 151° |
| 2026-04-26 01:09 | -20.31798 | 55.00958 | 10007 ft | 285 kts | 151° |
| 2026-04-26 01:09 | -20.33539 | 55.01974 | 10005 ft | 285 kts | 151° |
| 2026-04-26 01:10 | -20.35275 | 55.02986 | 10005 ft | 285 kts | 151° |
| 2026-04-26 01:10 | -20.37015 | 55.04002 | 10005 ft | 284 kts | 151° |
| 2026-04-26 01:10 | -20.38751 | 55.05014 | 10002 ft | 284 kts | 150° |
| 2026-04-26 01:10 | -20.40463 | 55.06013 | 9980 ft | 275 kts | 150° |
| 2026-04-26 01:11 | -20.42103 | 55.06971 | 9982 ft | 260 kts | 150° |
| 2026-04-26 01:11 | -20.43654 | 55.07876 | 9995 ft | 251 kts | 150° |
| 2026-04-26 01:11 | -20.45191 | 55.08774 | 10006 ft | 253 kts | 150° |
| 2026-04-26 01:11 | -20.46706 | 55.09660 | 9894 ft | 251 kts | 150° |
| 2026-04-26 01:12 | -20.48234 | 55.10553 | 9627 ft | 249 kts | 150° |
| 2026-04-26 01:12 | -20.49746 | 55.11437 | 9294 ft | 247 kts | 150° |
| 2026-04-26 01:12 | -20.51248 | 55.12315 | 9016 ft | 245 kts | 150° |
| 2026-04-26 01:12 | -20.52733 | 55.13184 | 8725 ft | 244 kts | 150° |
| 2026-04-26 01:13 | -20.54224 | 55.14056 | 8421 ft | 244 kts | 150° |
| 2026-04-26 01:13 | -20.55721 | 55.14932 | 8133 ft | 245 kts | 150° |
| 2026-04-26 01:13 | -20.57213 | 55.15805 | 7832 ft | 246 kts | 150° |
| 2026-04-26 01:13 | -20.58715 | 55.16684 | 7532 ft | 247 kts | 150° |
| 2026-04-26 01:14 | -20.60223 | 55.17567 | 7225 ft | 248 kts | 150° |
| 2026-04-26 01:14 | -20.61730 | 55.18450 | 6914 ft | 246 kts | 150° |
| 2026-04-26 01:14 | -20.63216 | 55.19321 | 6627 ft | 245 kts | 150° |
| 2026-04-26 01:14 | -20.64710 | 55.20196 | 6334 ft | 244 kts | 150° |
| 2026-04-26 01:15 | -20.66200 | 55.21070 | 6015 ft | 243 kts | 150° |
| 2026-04-26 01:15 | -20.67680 | 55.21937 | 5717 ft | 242 kts | 151° |
| 2026-04-26 01:15 | -20.69150 | 55.22799 | 5407 ft | 240 kts | 151° |
| 2026-04-26 01:15 | -20.70611 | 55.23656 | 5121 ft | 239 kts | 151° |
| 2026-04-26 01:16 | -20.72053 | 55.24502 | 4927 ft | 232 kts | 151° |
| 2026-04-26 01:16 | -20.73457 | 55.25326 | 4810 ft | 230 kts | 151° |
| 2026-04-26 01:16 | -20.74875 | 55.26158 | 4727 ft | 236 kts | 151° |
| 2026-04-26 01:16 | -20.76326 | 55.27009 | 4637 ft | 237 kts | 150° |
| 2026-04-26 01:17 | -20.77703 | 55.27916 | 4461 ft | 227 kts | 136° |
| 2026-04-26 01:17 | -20.78531 | 55.29299 | 4293 ft | 214 kts | 116° |
| 2026-04-26 01:17 | -20.79162 | 55.30702 | 4058 ft | 211 kts | 118° |
| 2026-04-26 01:17 | -20.79825 | 55.32092 | 3788 ft | 209 kts | 118° |
| 2026-04-26 01:18 | -20.80482 | 55.33478 | 3510 ft | 208 kts | 118° |
| 2026-04-26 01:18 | -20.80913 | 55.34392 | 3331 ft | 206 kts | 118° |
| 2026-04-26 01:18 | -20.81755 | 55.36183 | 3098 ft | 195 kts | 118° |
| 2026-04-26 01:18 | -20.82345 | 55.37441 | 2797 ft | 187 kts | 118° |
| 2026-04-26 01:19 | -20.82917 | 55.38659 | 2468 ft | 178 kts | 117° |
| 2026-04-26 01:19 | -20.83458 | 55.39812 | 2233 ft | 173 kts | 118° |
| 2026-04-26 01:19 | -20.83817 | 55.40575 | 2158 ft | 170 kts | 118° |
| 2026-04-26 01:19 | -20.84326 | 55.41663 | 2114 ft | 157 kts | 118° |
| 2026-04-26 01:20 | -20.84800 | 55.42669 | 1946 ft | 147 kts | 118° |
| 2026-04-26 01:20 | -20.85249 | 55.43633 | 1734 ft | 143 kts | 118° |
| 2026-04-26 01:20 | -20.85706 | 55.44600 | 1504 ft | 149 kts | 118° |
| 2026-04-26 01:20 | -20.86171 | 55.45589 | 1232 ft | 147 kts | 117° |
| 2026-04-26 01:21 | -20.86614 | 55.46565 | 928 ft | 142 kts | 117° |
| 2026-04-26 01:21 | -20.87062 | 55.47507 | 692 ft | 144 kts | 116° |
| 2026-04-26 01:21 | -20.87504 | 55.48472 | 485 ft | 142 kts | 116° |
| 2026-04-26 01:21 | -20.87929 | 55.49396 | 275 ft | 137 kts | 117° |
| 2026-04-26 01:22 | -20.88354 | 55.50271 | 114 ft | 128 kts | 116° |
| 2026-04-26 01:22 | -20.88730 | 55.51080 | 53 ft | 103 kts | 116° |
| 2026-04-26 01:22 | -20.88948 | 55.51543 | 62 ft | 36 kts | 116° |
| 2026-04-26 01:22 | -20.88996 | 55.51644 | 66 ft | 18 kts | 116° |
| 2026-04-26 01:23 | -20.89077 | 55.51819 | 84 ft | 28 kts | 116° |
| 2026-04-26 01:23 | -20.89164 | 55.52005 | 86 ft | 28 kts | 117° |
| 2026-04-26 01:23 | -20.89233 | 55.52153 | 66 ft | 14 kts | 116° |
| 2026-04-26 01:23 | -20.89307 | 55.52213 | 68 ft | 15 kts | 185° |
| 2026-04-26 01:24 | -20.89397 | 55.52166 | 66 ft | 15 kts | 234° |
| 2026-04-26 01:24 | -20.89378 | 55.52065 | 66 ft | 15 kts | 296° |
| 2026-04-26 01:24 | -20.89332 | 55.51967 | 67 ft | 15 kts | 296° |
| 2026-04-26 01:24 | -20.89286 | 55.51869 | 83 ft | 15 kts | 297° |
| 2026-04-26 01:25 | -20.89238 | 55.51765 | 66 ft | 17 kts | 296° |
| 2026-04-26 01:25 | -20.89182 | 55.51646 | 63 ft | 19 kts | 296° |
| 2026-04-26 01:25 | -20.89122 | 55.51519 | 60 ft | 14 kts | 296° |
| 2026-04-26 01:25 | -20.89075 | 55.51418 | 60 ft | 16 kts | 296° |
| 2026-04-26 01:26 | -20.89044 | 55.51348 | 57 ft | 7 kts | 286° |
| 2026-04-26 01:26 | -20.89064 | 55.51318 | 57 ft | 3 kts | 206° |
| 2026-04-26 01:26 | -20.89087 | 55.51304 | 57 ft | 4 kts | 207° |
| 2026-04-26 01:26 | -20.89098 | 55.51298 | 59 ft | 1 kts | 208° |
| 2026-04-26 01:27 | -20.89105 | 55.51294 | 59 ft | 0 kts | 208° |